<?xml version="1.0" encoding="UTF-8" standalone="no" ?>
<gpx xmlns="http://www.topografix.com/GPX/1/1" xmlns:xsi="http://www.w3.org/2001/XMLSchema-instance" xsi:schemaLocation="http://www.topografix.com/GPX/1/1 http://www.topografix.com/GPX/1/1/gpx.xsd" version="1.1" creator="VisuGPX - https://www.visugpx.com">
  <metadata>
    <name>9759185-Vignoble et Chateaux VTT 88B</name>
    <desc><![CDATA[Pays de Lons, Vignoble et Châteaux

Départ depuis le parking du stade nautique

parcours: Chille, Montain, Planoiseau, l'Étoile, Villeneuse sous pymont, Lons]]></desc>
  </metadata>
  <trk>
    <name><![CDATA[9759185-Vignoble et Chateaux VTT 88B]]></name>
    <trkseg>
      <trkpt lat="46.68376" lon="5.5672">
        <ele>276</ele>
        <time>2019-04-01T11:40:44Z</time>
      </trkpt>
      <trkpt lat="46.68367" lon="5.56701">
        <ele>276</ele>
        <time>2019-04-01T11:41:44Z</time>
      </trkpt>
      <trkpt lat="46.6836" lon="5.56682">
        <ele>275</ele>
        <time>2019-04-01T11:42:44Z</time>
      </trkpt>
      <trkpt lat="46.68353" lon="5.56655">
        <ele>275</ele>
        <time>2019-04-01T11:43:44Z</time>
      </trkpt>
      <trkpt lat="46.68345" lon="5.56634">
        <ele>274</ele>
        <time>2019-04-01T11:44:44Z</time>
      </trkpt>
      <trkpt lat="46.68338" lon="5.56616">
        <ele>273</ele>
        <time>2019-04-01T11:45:44Z</time>
      </trkpt>
      <trkpt lat="46.68332" lon="5.56598">
        <ele>272</ele>
        <time>2019-04-01T11:46:44Z</time>
      </trkpt>
      <trkpt lat="46.6832" lon="5.56575">
        <ele>271</ele>
        <time>2019-04-01T11:47:44Z</time>
      </trkpt>
      <trkpt lat="46.68301" lon="5.56547">
        <ele>270</ele>
        <time>2019-04-01T11:48:44Z</time>
      </trkpt>
      <trkpt lat="46.68287" lon="5.56525">
        <ele>269</ele>
        <time>2019-04-01T11:49:44Z</time>
      </trkpt>
      <trkpt lat="46.68284" lon="5.56519">
        <ele>269</ele>
        <time>2019-04-01T11:50:44Z</time>
      </trkpt>
      <trkpt lat="46.68279" lon="5.56512">
        <ele>269</ele>
        <time>2019-04-01T11:51:44Z</time>
      </trkpt>
      <trkpt lat="46.68265" lon="5.56487">
        <ele>268</ele>
        <time>2019-04-01T11:52:44Z</time>
      </trkpt>
      <trkpt lat="46.68254" lon="5.56471">
        <ele>268</ele>
        <time>2019-04-01T11:53:44Z</time>
      </trkpt>
      <trkpt lat="46.68246" lon="5.56457">
        <ele>268</ele>
        <time>2019-04-01T11:54:44Z</time>
      </trkpt>
      <trkpt lat="46.68241" lon="5.5645">
        <ele>268</ele>
        <time>2019-04-01T11:55:44Z</time>
      </trkpt>
      <trkpt lat="46.68231" lon="5.56435">
        <ele>268</ele>
        <time>2019-04-01T11:56:44Z</time>
      </trkpt>
      <trkpt lat="46.68209" lon="5.56406">
        <ele>269</ele>
        <time>2019-04-01T11:57:44Z</time>
      </trkpt>
      <trkpt lat="46.68183" lon="5.56368">
        <ele>270</ele>
        <time>2019-04-01T11:58:44Z</time>
      </trkpt>
      <trkpt lat="46.68141" lon="5.56301">
        <ele>269</ele>
        <time>2019-04-01T11:59:44Z</time>
      </trkpt>
      <trkpt lat="46.68128" lon="5.56283">
        <ele>269</ele>
        <time>2019-04-01T12:00:44Z</time>
      </trkpt>
      <trkpt lat="46.68118" lon="5.56266">
        <ele>269</ele>
        <time>2019-04-01T12:01:44Z</time>
      </trkpt>
      <trkpt lat="46.68113" lon="5.56258">
        <ele>269</ele>
        <time>2019-04-01T12:02:44Z</time>
      </trkpt>
      <trkpt lat="46.68108" lon="5.56248">
        <ele>269</ele>
        <time>2019-04-01T12:03:44Z</time>
      </trkpt>
      <trkpt lat="46.68102" lon="5.56236">
        <ele>269</ele>
        <time>2019-04-01T12:04:44Z</time>
      </trkpt>
      <trkpt lat="46.68095" lon="5.56219">
        <ele>268</ele>
        <time>2019-04-01T12:05:44Z</time>
      </trkpt>
      <trkpt lat="46.6809" lon="5.56204">
        <ele>268</ele>
        <time>2019-04-01T12:06:44Z</time>
      </trkpt>
      <trkpt lat="46.68085" lon="5.56186">
        <ele>267</ele>
        <time>2019-04-01T12:07:44Z</time>
      </trkpt>
      <trkpt lat="46.68074" lon="5.56143">
        <ele>265</ele>
        <time>2019-04-01T12:08:44Z</time>
      </trkpt>
      <trkpt lat="46.68064" lon="5.56096">
        <ele>263</ele>
        <time>2019-04-01T12:09:44Z</time>
      </trkpt>
      <trkpt lat="46.68057" lon="5.56066">
        <ele>263</ele>
        <time>2019-04-01T12:10:44Z</time>
      </trkpt>
      <trkpt lat="46.6805" lon="5.56039">
        <ele>262</ele>
        <time>2019-04-01T12:11:44Z</time>
      </trkpt>
      <trkpt lat="46.68044" lon="5.56021">
        <ele>262</ele>
        <time>2019-04-01T12:12:44Z</time>
      </trkpt>
      <trkpt lat="46.6804" lon="5.56009">
        <ele>262</ele>
        <time>2019-04-01T12:13:44Z</time>
      </trkpt>
      <trkpt lat="46.68004" lon="5.55955">
        <ele>261</ele>
        <time>2019-04-01T12:14:44Z</time>
      </trkpt>
      <trkpt lat="46.67996" lon="5.55948">
        <ele>261</ele>
        <time>2019-04-01T12:15:44Z</time>
      </trkpt>
      <trkpt lat="46.67986" lon="5.55942">
        <ele>262</ele>
        <time>2019-04-01T12:16:44Z</time>
      </trkpt>
      <trkpt lat="46.67921" lon="5.55909">
        <ele>261</ele>
        <time>2019-04-01T12:17:44Z</time>
      </trkpt>
      <trkpt lat="46.67907" lon="5.55902">
        <ele>261</ele>
        <time>2019-04-01T12:18:44Z</time>
      </trkpt>
      <trkpt lat="46.67879" lon="5.55879">
        <ele>261</ele>
        <time>2019-04-01T12:19:44Z</time>
      </trkpt>
      <trkpt lat="46.67861" lon="5.55861">
        <ele>260</ele>
        <time>2019-04-01T12:20:44Z</time>
      </trkpt>
      <trkpt lat="46.6783" lon="5.55836">
        <ele>260</ele>
        <time>2019-04-01T12:21:44Z</time>
      </trkpt>
      <trkpt lat="46.67823" lon="5.5583">
        <ele>260</ele>
        <time>2019-04-01T12:22:44Z</time>
      </trkpt>
      <trkpt lat="46.67799" lon="5.55815">
        <ele>260</ele>
        <time>2019-04-01T12:23:44Z</time>
      </trkpt>
      <trkpt lat="46.67788" lon="5.55805">
        <ele>260</ele>
        <time>2019-04-01T12:24:44Z</time>
      </trkpt>
      <trkpt lat="46.67782" lon="5.55799">
        <ele>260</ele>
        <time>2019-04-01T12:25:44Z</time>
      </trkpt>
      <trkpt lat="46.67753" lon="5.55741">
        <ele>258</ele>
        <time>2019-04-01T12:26:44Z</time>
      </trkpt>
      <trkpt lat="46.67737" lon="5.55711">
        <ele>258</ele>
        <time>2019-04-01T12:27:44Z</time>
      </trkpt>
      <trkpt lat="46.67739" lon="5.55707">
        <ele>258</ele>
        <time>2019-04-01T12:28:44Z</time>
      </trkpt>
      <trkpt lat="46.67739" lon="5.55703">
        <ele>258</ele>
        <time>2019-04-01T12:29:44Z</time>
      </trkpt>
      <trkpt lat="46.67737" lon="5.55697">
        <ele>258</ele>
        <time>2019-04-01T12:30:44Z</time>
      </trkpt>
      <trkpt lat="46.67736" lon="5.55695">
        <ele>258</ele>
        <time>2019-04-01T12:31:44Z</time>
      </trkpt>
      <trkpt lat="46.6774" lon="5.55686">
        <ele>258</ele>
        <time>2019-04-01T12:32:44Z</time>
      </trkpt>
      <trkpt lat="46.67745" lon="5.55676">
        <ele>257</ele>
        <time>2019-04-01T12:33:44Z</time>
      </trkpt>
      <trkpt lat="46.6775" lon="5.55657">
        <ele>257</ele>
        <time>2019-04-01T12:34:44Z</time>
      </trkpt>
      <trkpt lat="46.67753" lon="5.55629">
        <ele>257</ele>
        <time>2019-04-01T12:35:44Z</time>
      </trkpt>
      <trkpt lat="46.67753" lon="5.55603">
        <ele>258</ele>
        <time>2019-04-01T12:36:44Z</time>
      </trkpt>
      <trkpt lat="46.67753" lon="5.55582">
        <ele>258</ele>
        <time>2019-04-01T12:37:44Z</time>
      </trkpt>
      <trkpt lat="46.67751" lon="5.55531">
        <ele>257</ele>
        <time>2019-04-01T12:38:44Z</time>
      </trkpt>
      <trkpt lat="46.6775" lon="5.5551">
        <ele>256</ele>
        <time>2019-04-01T12:39:44Z</time>
      </trkpt>
      <trkpt lat="46.67767" lon="5.5551">
        <ele>256</ele>
        <time>2019-04-01T12:40:44Z</time>
      </trkpt>
      <trkpt lat="46.67777" lon="5.55511">
        <ele>256</ele>
        <time>2019-04-01T12:41:44Z</time>
      </trkpt>
      <trkpt lat="46.67774" lon="5.55487">
        <ele>256</ele>
        <time>2019-04-01T12:42:44Z</time>
      </trkpt>
      <trkpt lat="46.67768" lon="5.55414">
        <ele>255</ele>
        <time>2019-04-01T12:43:44Z</time>
      </trkpt>
      <trkpt lat="46.67766" lon="5.55399">
        <ele>255</ele>
        <time>2019-04-01T12:44:44Z</time>
      </trkpt>
      <trkpt lat="46.67757" lon="5.55386">
        <ele>254</ele>
        <time>2019-04-01T12:45:44Z</time>
      </trkpt>
      <trkpt lat="46.67748" lon="5.55377">
        <ele>254</ele>
        <time>2019-04-01T12:46:44Z</time>
      </trkpt>
      <trkpt lat="46.67735" lon="5.55357">
        <ele>254</ele>
        <time>2019-04-01T12:47:44Z</time>
      </trkpt>
      <trkpt lat="46.67727" lon="5.55342">
        <ele>254</ele>
        <time>2019-04-01T12:48:44Z</time>
      </trkpt>
      <trkpt lat="46.67747" lon="5.55313">
        <ele>253</ele>
        <time>2019-04-01T12:49:44Z</time>
      </trkpt>
      <trkpt lat="46.67749" lon="5.55306">
        <ele>252</ele>
        <time>2019-04-01T12:50:44Z</time>
      </trkpt>
      <trkpt lat="46.67756" lon="5.55305">
        <ele>252</ele>
        <time>2019-04-01T12:51:44Z</time>
      </trkpt>
      <trkpt lat="46.67762" lon="5.55304">
        <ele>252</ele>
        <time>2019-04-01T12:52:44Z</time>
      </trkpt>
      <trkpt lat="46.67771" lon="5.55298">
        <ele>253</ele>
        <time>2019-04-01T12:53:44Z</time>
      </trkpt>
      <trkpt lat="46.6778" lon="5.5529">
        <ele>253</ele>
        <time>2019-04-01T12:54:44Z</time>
      </trkpt>
      <trkpt lat="46.67788" lon="5.55275">
        <ele>252</ele>
        <time>2019-04-01T12:55:44Z</time>
      </trkpt>
      <trkpt lat="46.67792" lon="5.55262">
        <ele>252</ele>
        <time>2019-04-01T12:56:44Z</time>
      </trkpt>
      <trkpt lat="46.67796" lon="5.55243">
        <ele>252</ele>
        <time>2019-04-01T12:57:44Z</time>
      </trkpt>
      <trkpt lat="46.67797" lon="5.55226">
        <ele>252</ele>
        <time>2019-04-01T12:58:44Z</time>
      </trkpt>
      <trkpt lat="46.67797" lon="5.55175">
        <ele>252</ele>
        <time>2019-04-01T12:59:44Z</time>
      </trkpt>
      <trkpt lat="46.678" lon="5.55163">
        <ele>252</ele>
        <time>2019-04-01T13:00:44Z</time>
      </trkpt>
      <trkpt lat="46.67808" lon="5.55151">
        <ele>252</ele>
        <time>2019-04-01T13:01:44Z</time>
      </trkpt>
      <trkpt lat="46.67816" lon="5.55146">
        <ele>252</ele>
        <time>2019-04-01T13:02:44Z</time>
      </trkpt>
      <trkpt lat="46.67835" lon="5.55142">
        <ele>253</ele>
        <time>2019-04-01T13:03:44Z</time>
      </trkpt>
      <trkpt lat="46.67873" lon="5.55133">
        <ele>254</ele>
        <time>2019-04-01T13:04:44Z</time>
      </trkpt>
      <trkpt lat="46.67872" lon="5.55117">
        <ele>254</ele>
        <time>2019-04-01T13:05:44Z</time>
      </trkpt>
      <trkpt lat="46.67877" lon="5.55103">
        <ele>254</ele>
        <time>2019-04-01T13:06:44Z</time>
      </trkpt>
      <trkpt lat="46.67891" lon="5.5507">
        <ele>256</ele>
        <time>2019-04-01T13:07:44Z</time>
      </trkpt>
      <trkpt lat="46.67899" lon="5.55053">
        <ele>258</ele>
        <time>2019-04-01T13:08:44Z</time>
      </trkpt>
      <trkpt lat="46.67905" lon="5.55043">
        <ele>259</ele>
        <time>2019-04-01T13:09:44Z</time>
      </trkpt>
      <trkpt lat="46.67913" lon="5.55031">
        <ele>259</ele>
        <time>2019-04-01T13:10:44Z</time>
      </trkpt>
      <trkpt lat="46.67913" lon="5.55014">
        <ele>260</ele>
        <time>2019-04-01T13:11:44Z</time>
      </trkpt>
      <trkpt lat="46.67913" lon="5.54997">
        <ele>261</ele>
        <time>2019-04-01T13:12:44Z</time>
      </trkpt>
      <trkpt lat="46.67909" lon="5.54975">
        <ele>264</ele>
        <time>2019-04-01T13:13:44Z</time>
      </trkpt>
      <trkpt lat="46.67905" lon="5.54967">
        <ele>265</ele>
        <time>2019-04-01T13:14:44Z</time>
      </trkpt>
      <trkpt lat="46.67896" lon="5.54958">
        <ele>266</ele>
        <time>2019-04-01T13:15:44Z</time>
      </trkpt>
      <trkpt lat="46.67881" lon="5.54949">
        <ele>267</ele>
        <time>2019-04-01T13:16:44Z</time>
      </trkpt>
      <trkpt lat="46.67872" lon="5.54942">
        <ele>268</ele>
        <time>2019-04-01T13:17:44Z</time>
      </trkpt>
      <trkpt lat="46.6786" lon="5.54936">
        <ele>269</ele>
        <time>2019-04-01T13:18:44Z</time>
      </trkpt>
      <trkpt lat="46.67847" lon="5.54927">
        <ele>270</ele>
        <time>2019-04-01T13:19:44Z</time>
      </trkpt>
      <trkpt lat="46.67835" lon="5.54919">
        <ele>272</ele>
        <time>2019-04-01T13:20:44Z</time>
      </trkpt>
      <trkpt lat="46.67826" lon="5.54909">
        <ele>273</ele>
        <time>2019-04-01T13:21:44Z</time>
      </trkpt>
      <trkpt lat="46.67821" lon="5.54902">
        <ele>274</ele>
        <time>2019-04-01T13:22:44Z</time>
      </trkpt>
      <trkpt lat="46.67819" lon="5.54894">
        <ele>274</ele>
        <time>2019-04-01T13:23:44Z</time>
      </trkpt>
      <trkpt lat="46.6782" lon="5.54883">
        <ele>276</ele>
        <time>2019-04-01T13:24:44Z</time>
      </trkpt>
      <trkpt lat="46.67823" lon="5.54873">
        <ele>277</ele>
        <time>2019-04-01T13:25:44Z</time>
      </trkpt>
      <trkpt lat="46.6783" lon="5.54863">
        <ele>278</ele>
        <time>2019-04-01T13:26:44Z</time>
      </trkpt>
      <trkpt lat="46.67839" lon="5.54855">
        <ele>279</ele>
        <time>2019-04-01T13:27:44Z</time>
      </trkpt>
      <trkpt lat="46.67852" lon="5.54844">
        <ele>280</ele>
        <time>2019-04-01T13:28:44Z</time>
      </trkpt>
      <trkpt lat="46.67875" lon="5.54827">
        <ele>281</ele>
        <time>2019-04-01T13:29:44Z</time>
      </trkpt>
      <trkpt lat="46.67887" lon="5.54816">
        <ele>282</ele>
        <time>2019-04-01T13:30:44Z</time>
      </trkpt>
      <trkpt lat="46.6789" lon="5.54796">
        <ele>284</ele>
        <time>2019-04-01T13:31:44Z</time>
      </trkpt>
      <trkpt lat="46.67892" lon="5.54774">
        <ele>286</ele>
        <time>2019-04-01T13:32:44Z</time>
      </trkpt>
      <trkpt lat="46.67894" lon="5.54759">
        <ele>287</ele>
        <time>2019-04-01T13:33:44Z</time>
      </trkpt>
      <trkpt lat="46.67894" lon="5.54751">
        <ele>288</ele>
        <time>2019-04-01T13:34:44Z</time>
      </trkpt>
      <trkpt lat="46.67895" lon="5.54734">
        <ele>288</ele>
        <time>2019-04-01T13:35:44Z</time>
      </trkpt>
      <trkpt lat="46.67897" lon="5.54721">
        <ele>289</ele>
        <time>2019-04-01T13:36:44Z</time>
      </trkpt>
      <trkpt lat="46.679" lon="5.54714">
        <ele>289</ele>
        <time>2019-04-01T13:37:44Z</time>
      </trkpt>
      <trkpt lat="46.67904" lon="5.54709">
        <ele>290</ele>
        <time>2019-04-01T13:38:44Z</time>
      </trkpt>
      <trkpt lat="46.6791" lon="5.54707">
        <ele>290</ele>
        <time>2019-04-01T13:39:44Z</time>
      </trkpt>
      <trkpt lat="46.67921" lon="5.54711">
        <ele>290</ele>
        <time>2019-04-01T13:40:44Z</time>
      </trkpt>
      <trkpt lat="46.67938" lon="5.54719">
        <ele>290</ele>
        <time>2019-04-01T13:41:44Z</time>
      </trkpt>
      <trkpt lat="46.67948" lon="5.54723">
        <ele>290</ele>
        <time>2019-04-01T13:42:44Z</time>
      </trkpt>
      <trkpt lat="46.67955" lon="5.5472">
        <ele>291</ele>
        <time>2019-04-01T13:43:44Z</time>
      </trkpt>
      <trkpt lat="46.67963" lon="5.54711">
        <ele>292</ele>
        <time>2019-04-01T13:44:44Z</time>
      </trkpt>
      <trkpt lat="46.67967" lon="5.54697">
        <ele>293</ele>
        <time>2019-04-01T13:45:44Z</time>
      </trkpt>
      <trkpt lat="46.67979" lon="5.54624">
        <ele>295</ele>
        <time>2019-04-01T13:46:44Z</time>
      </trkpt>
      <trkpt lat="46.67981" lon="5.54614">
        <ele>296</ele>
        <time>2019-04-01T13:47:44Z</time>
      </trkpt>
      <trkpt lat="46.67985" lon="5.54609">
        <ele>296</ele>
        <time>2019-04-01T13:48:44Z</time>
      </trkpt>
      <trkpt lat="46.67994" lon="5.54606">
        <ele>297</ele>
        <time>2019-04-01T13:49:44Z</time>
      </trkpt>
      <trkpt lat="46.68009" lon="5.54603">
        <ele>298</ele>
        <time>2019-04-01T13:50:44Z</time>
      </trkpt>
      <trkpt lat="46.68015" lon="5.54602">
        <ele>298</ele>
        <time>2019-04-01T13:51:44Z</time>
      </trkpt>
      <trkpt lat="46.68018" lon="5.54589">
        <ele>298</ele>
        <time>2019-04-01T13:52:44Z</time>
      </trkpt>
      <trkpt lat="46.6802" lon="5.54558">
        <ele>296</ele>
        <time>2019-04-01T13:53:44Z</time>
      </trkpt>
      <trkpt lat="46.6802" lon="5.54541">
        <ele>295</ele>
        <time>2019-04-01T13:54:44Z</time>
      </trkpt>
      <trkpt lat="46.68048" lon="5.54543">
        <ele>296</ele>
        <time>2019-04-01T13:55:44Z</time>
      </trkpt>
      <trkpt lat="46.68059" lon="5.54545">
        <ele>297</ele>
        <time>2019-04-01T13:56:44Z</time>
      </trkpt>
      <trkpt lat="46.68078" lon="5.54547">
        <ele>298</ele>
        <time>2019-04-01T13:57:44Z</time>
      </trkpt>
      <trkpt lat="46.68096" lon="5.54553">
        <ele>299</ele>
        <time>2019-04-01T13:58:44Z</time>
      </trkpt>
      <trkpt lat="46.6816" lon="5.54567">
        <ele>303</ele>
        <time>2019-04-01T13:59:44Z</time>
      </trkpt>
      <trkpt lat="46.68165" lon="5.54571">
        <ele>304</ele>
        <time>2019-04-01T14:00:44Z</time>
      </trkpt>
      <trkpt lat="46.68172" lon="5.54554">
        <ele>303</ele>
        <time>2019-04-01T14:01:44Z</time>
      </trkpt>
      <trkpt lat="46.68176" lon="5.54539">
        <ele>303</ele>
        <time>2019-04-01T14:02:44Z</time>
      </trkpt>
      <trkpt lat="46.68184" lon="5.54522">
        <ele>302</ele>
        <time>2019-04-01T14:03:44Z</time>
      </trkpt>
      <trkpt lat="46.68191" lon="5.5451">
        <ele>302</ele>
        <time>2019-04-01T14:04:44Z</time>
      </trkpt>
      <trkpt lat="46.682" lon="5.54499">
        <ele>303</ele>
        <time>2019-04-01T14:05:44Z</time>
      </trkpt>
      <trkpt lat="46.68207" lon="5.54489">
        <ele>304</ele>
        <time>2019-04-01T14:06:44Z</time>
      </trkpt>
      <trkpt lat="46.68209" lon="5.54478">
        <ele>304</ele>
        <time>2019-04-01T14:07:44Z</time>
      </trkpt>
      <trkpt lat="46.68218" lon="5.54439">
        <ele>305</ele>
        <time>2019-04-01T14:08:44Z</time>
      </trkpt>
      <trkpt lat="46.68227" lon="5.54402">
        <ele>307</ele>
        <time>2019-04-01T14:09:44Z</time>
      </trkpt>
      <trkpt lat="46.68231" lon="5.5439">
        <ele>308</ele>
        <time>2019-04-01T14:10:44Z</time>
      </trkpt>
      <trkpt lat="46.68272" lon="5.54303">
        <ele>308</ele>
        <time>2019-04-01T14:11:44Z</time>
      </trkpt>
      <trkpt lat="46.68371" lon="5.5429">
        <ele>315</ele>
        <time>2019-04-01T14:12:44Z</time>
      </trkpt>
      <trkpt lat="46.68452" lon="5.54256">
        <ele>319</ele>
        <time>2019-04-01T14:13:44Z</time>
      </trkpt>
      <trkpt lat="46.68536" lon="5.54113">
        <ele>309</ele>
        <time>2019-04-01T14:14:44Z</time>
      </trkpt>
      <trkpt lat="46.6855" lon="5.54097">
        <ele>308</ele>
        <time>2019-04-01T14:15:44Z</time>
      </trkpt>
      <trkpt lat="46.68556" lon="5.54085">
        <ele>307</ele>
        <time>2019-04-01T14:16:44Z</time>
      </trkpt>
      <trkpt lat="46.6856" lon="5.54074">
        <ele>307</ele>
        <time>2019-04-01T14:17:44Z</time>
      </trkpt>
      <trkpt lat="46.68584" lon="5.5403">
        <ele>306</ele>
        <time>2019-04-01T14:18:44Z</time>
      </trkpt>
      <trkpt lat="46.68594" lon="5.5402">
        <ele>306</ele>
        <time>2019-04-01T14:19:44Z</time>
      </trkpt>
      <trkpt lat="46.68605" lon="5.54014">
        <ele>306</ele>
        <time>2019-04-01T14:20:44Z</time>
      </trkpt>
      <trkpt lat="46.68621" lon="5.54008">
        <ele>305</ele>
        <time>2019-04-01T14:21:44Z</time>
      </trkpt>
      <trkpt lat="46.68644" lon="5.53997">
        <ele>305</ele>
        <time>2019-04-01T14:22:44Z</time>
      </trkpt>
      <trkpt lat="46.68665" lon="5.53986">
        <ele>304</ele>
        <time>2019-04-01T14:23:44Z</time>
      </trkpt>
      <trkpt lat="46.68697" lon="5.5398">
        <ele>304</ele>
        <time>2019-04-01T14:24:44Z</time>
      </trkpt>
      <trkpt lat="46.6872" lon="5.53974">
        <ele>304</ele>
        <time>2019-04-01T14:25:44Z</time>
      </trkpt>
      <trkpt lat="46.68729" lon="5.53971">
        <ele>304</ele>
        <time>2019-04-01T14:26:44Z</time>
      </trkpt>
      <trkpt lat="46.68771" lon="5.53936">
        <ele>302</ele>
        <time>2019-04-01T14:27:44Z</time>
      </trkpt>
      <trkpt lat="46.68787" lon="5.53923">
        <ele>301</ele>
        <time>2019-04-01T14:28:44Z</time>
      </trkpt>
      <trkpt lat="46.68797" lon="5.53917">
        <ele>301</ele>
        <time>2019-04-01T14:29:44Z</time>
      </trkpt>
      <trkpt lat="46.68811" lon="5.53911">
        <ele>301</ele>
        <time>2019-04-01T14:30:44Z</time>
      </trkpt>
      <trkpt lat="46.68821" lon="5.53908">
        <ele>300</ele>
        <time>2019-04-01T14:31:44Z</time>
      </trkpt>
      <trkpt lat="46.68833" lon="5.53901">
        <ele>300</ele>
        <time>2019-04-01T14:32:44Z</time>
      </trkpt>
      <trkpt lat="46.68844" lon="5.53892">
        <ele>299</ele>
        <time>2019-04-01T14:33:44Z</time>
      </trkpt>
      <trkpt lat="46.68854" lon="5.53881">
        <ele>298</ele>
        <time>2019-04-01T14:34:44Z</time>
      </trkpt>
      <trkpt lat="46.68865" lon="5.53869">
        <ele>298</ele>
        <time>2019-04-01T14:35:44Z</time>
      </trkpt>
      <trkpt lat="46.68872" lon="5.53857">
        <ele>297</ele>
        <time>2019-04-01T14:36:44Z</time>
      </trkpt>
      <trkpt lat="46.68875" lon="5.53846">
        <ele>296</ele>
        <time>2019-04-01T14:37:44Z</time>
      </trkpt>
      <trkpt lat="46.68897" lon="5.53846">
        <ele>296</ele>
        <time>2019-04-01T14:38:44Z</time>
      </trkpt>
      <trkpt lat="46.68914" lon="5.53852">
        <ele>296</ele>
        <time>2019-04-01T14:39:44Z</time>
      </trkpt>
      <trkpt lat="46.68936" lon="5.53862">
        <ele>297</ele>
        <time>2019-04-01T14:40:44Z</time>
      </trkpt>
      <trkpt lat="46.6895" lon="5.53872">
        <ele>297</ele>
        <time>2019-04-01T14:41:44Z</time>
      </trkpt>
      <trkpt lat="46.6896" lon="5.53878">
        <ele>297</ele>
        <time>2019-04-01T14:42:44Z</time>
      </trkpt>
      <trkpt lat="46.68968" lon="5.53886">
        <ele>298</ele>
        <time>2019-04-01T14:43:44Z</time>
      </trkpt>
      <trkpt lat="46.68974" lon="5.53897">
        <ele>298</ele>
        <time>2019-04-01T14:44:44Z</time>
      </trkpt>
      <trkpt lat="46.68984" lon="5.53918">
        <ele>299</ele>
        <time>2019-04-01T14:45:44Z</time>
      </trkpt>
      <trkpt lat="46.68994" lon="5.53942">
        <ele>299</ele>
        <time>2019-04-01T14:46:44Z</time>
      </trkpt>
      <trkpt lat="46.69039" lon="5.54034">
        <ele>301</ele>
        <time>2019-04-01T14:47:44Z</time>
      </trkpt>
      <trkpt lat="46.69041" lon="5.54039">
        <ele>301</ele>
        <time>2019-04-01T14:48:44Z</time>
      </trkpt>
      <trkpt lat="46.69045" lon="5.54054">
        <ele>301</ele>
        <time>2019-04-01T14:49:44Z</time>
      </trkpt>
      <trkpt lat="46.69053" lon="5.5408">
        <ele>301</ele>
        <time>2019-04-01T14:50:44Z</time>
      </trkpt>
      <trkpt lat="46.69059" lon="5.54105">
        <ele>301</ele>
        <time>2019-04-01T14:51:44Z</time>
      </trkpt>
      <trkpt lat="46.69065" lon="5.54131">
        <ele>301</ele>
        <time>2019-04-01T14:52:44Z</time>
      </trkpt>
      <trkpt lat="46.69069" lon="5.54155">
        <ele>301</ele>
        <time>2019-04-01T14:53:44Z</time>
      </trkpt>
      <trkpt lat="46.69074" lon="5.54178">
        <ele>301</ele>
        <time>2019-04-01T14:54:44Z</time>
      </trkpt>
      <trkpt lat="46.69089" lon="5.5424">
        <ele>302</ele>
        <time>2019-04-01T14:55:44Z</time>
      </trkpt>
      <trkpt lat="46.69095" lon="5.54265">
        <ele>304</ele>
        <time>2019-04-01T14:56:44Z</time>
      </trkpt>
      <trkpt lat="46.69102" lon="5.54289">
        <ele>305</ele>
        <time>2019-04-01T14:57:44Z</time>
      </trkpt>
      <trkpt lat="46.69113" lon="5.54335">
        <ele>307</ele>
        <time>2019-04-01T14:58:44Z</time>
      </trkpt>
      <trkpt lat="46.69118" lon="5.5436">
        <ele>308</ele>
        <time>2019-04-01T14:59:44Z</time>
      </trkpt>
      <trkpt lat="46.6912" lon="5.54382">
        <ele>310</ele>
        <time>2019-04-01T15:00:44Z</time>
      </trkpt>
      <trkpt lat="46.69121" lon="5.54396">
        <ele>311</ele>
        <time>2019-04-01T15:01:44Z</time>
      </trkpt>
      <trkpt lat="46.69124" lon="5.54459">
        <ele>312</ele>
        <time>2019-04-01T15:02:44Z</time>
      </trkpt>
      <trkpt lat="46.69122" lon="5.54479">
        <ele>313</ele>
        <time>2019-04-01T15:03:44Z</time>
      </trkpt>
      <trkpt lat="46.69119" lon="5.54491">
        <ele>314</ele>
        <time>2019-04-01T15:04:44Z</time>
      </trkpt>
      <trkpt lat="46.69112" lon="5.54501">
        <ele>315</ele>
        <time>2019-04-01T15:05:44Z</time>
      </trkpt>
      <trkpt lat="46.69093" lon="5.5454">
        <ele>313</ele>
        <time>2019-04-01T15:06:44Z</time>
      </trkpt>
      <trkpt lat="46.69088" lon="5.54556">
        <ele>311</ele>
        <time>2019-04-01T15:07:44Z</time>
      </trkpt>
      <trkpt lat="46.69086" lon="5.546">
        <ele>304</ele>
        <time>2019-04-01T15:08:44Z</time>
      </trkpt>
      <trkpt lat="46.69087" lon="5.54624">
        <ele>301</ele>
        <time>2019-04-01T15:09:44Z</time>
      </trkpt>
      <trkpt lat="46.69085" lon="5.54645">
        <ele>299</ele>
        <time>2019-04-01T15:10:44Z</time>
      </trkpt>
      <trkpt lat="46.69079" lon="5.54677">
        <ele>296</ele>
        <time>2019-04-01T15:11:44Z</time>
      </trkpt>
      <trkpt lat="46.69075" lon="5.547">
        <ele>296</ele>
        <time>2019-04-01T15:12:44Z</time>
      </trkpt>
      <trkpt lat="46.69075" lon="5.54754">
        <ele>293</ele>
        <time>2019-04-01T15:13:44Z</time>
      </trkpt>
      <trkpt lat="46.69075" lon="5.54779">
        <ele>292</ele>
        <time>2019-04-01T15:14:44Z</time>
      </trkpt>
      <trkpt lat="46.69072" lon="5.54833">
        <ele>290</ele>
        <time>2019-04-01T15:15:44Z</time>
      </trkpt>
      <trkpt lat="46.69071" lon="5.54848">
        <ele>289</ele>
        <time>2019-04-01T15:16:44Z</time>
      </trkpt>
      <trkpt lat="46.69067" lon="5.5486">
        <ele>290</ele>
        <time>2019-04-01T15:17:44Z</time>
      </trkpt>
      <trkpt lat="46.69059" lon="5.54876">
        <ele>291</ele>
        <time>2019-04-01T15:18:44Z</time>
      </trkpt>
      <trkpt lat="46.69051" lon="5.54893">
        <ele>292</ele>
        <time>2019-04-01T15:19:44Z</time>
      </trkpt>
      <trkpt lat="46.69064" lon="5.54912">
        <ele>289</ele>
        <time>2019-04-01T15:20:44Z</time>
      </trkpt>
      <trkpt lat="46.69073" lon="5.54924">
        <ele>287</ele>
        <time>2019-04-01T15:21:44Z</time>
      </trkpt>
      <trkpt lat="46.6908" lon="5.54941">
        <ele>286</ele>
        <time>2019-04-01T15:22:44Z</time>
      </trkpt>
      <trkpt lat="46.69093" lon="5.54973">
        <ele>285</ele>
        <time>2019-04-01T15:23:44Z</time>
      </trkpt>
      <trkpt lat="46.69096" lon="5.54985">
        <ele>285</ele>
        <time>2019-04-01T15:24:44Z</time>
      </trkpt>
      <trkpt lat="46.69099" lon="5.55">
        <ele>285</ele>
        <time>2019-04-01T15:25:44Z</time>
      </trkpt>
      <trkpt lat="46.69109" lon="5.55002">
        <ele>284</ele>
        <time>2019-04-01T15:26:44Z</time>
      </trkpt>
      <trkpt lat="46.6912" lon="5.55007">
        <ele>284</ele>
        <time>2019-04-01T15:27:44Z</time>
      </trkpt>
      <trkpt lat="46.69134" lon="5.55017">
        <ele>284</ele>
        <time>2019-04-01T15:28:44Z</time>
      </trkpt>
      <trkpt lat="46.69151" lon="5.5503">
        <ele>284</ele>
        <time>2019-04-01T15:29:44Z</time>
      </trkpt>
      <trkpt lat="46.69163" lon="5.55042">
        <ele>284</ele>
        <time>2019-04-01T15:30:44Z</time>
      </trkpt>
      <trkpt lat="46.69175" lon="5.55056">
        <ele>285</ele>
        <time>2019-04-01T15:31:44Z</time>
      </trkpt>
      <trkpt lat="46.69186" lon="5.55063">
        <ele>285</ele>
        <time>2019-04-01T15:32:44Z</time>
      </trkpt>
      <trkpt lat="46.69196" lon="5.55066">
        <ele>285</ele>
        <time>2019-04-01T15:33:44Z</time>
      </trkpt>
      <trkpt lat="46.69222" lon="5.5507">
        <ele>284</ele>
        <time>2019-04-01T15:34:44Z</time>
      </trkpt>
      <trkpt lat="46.69245" lon="5.55072">
        <ele>284</ele>
        <time>2019-04-01T15:35:44Z</time>
      </trkpt>
      <trkpt lat="46.69263" lon="5.55076">
        <ele>285</ele>
        <time>2019-04-01T15:36:44Z</time>
      </trkpt>
      <trkpt lat="46.69277" lon="5.55082">
        <ele>287</ele>
        <time>2019-04-01T15:37:44Z</time>
      </trkpt>
      <trkpt lat="46.69292" lon="5.55093">
        <ele>288</ele>
        <time>2019-04-01T15:38:44Z</time>
      </trkpt>
      <trkpt lat="46.69301" lon="5.55097">
        <ele>290</ele>
        <time>2019-04-01T15:39:44Z</time>
      </trkpt>
      <trkpt lat="46.69309" lon="5.55098">
        <ele>290</ele>
        <time>2019-04-01T15:40:44Z</time>
      </trkpt>
      <trkpt lat="46.6931" lon="5.55086">
        <ele>290</ele>
        <time>2019-04-01T15:41:44Z</time>
      </trkpt>
      <trkpt lat="46.69309" lon="5.55071">
        <ele>290</ele>
        <time>2019-04-01T15:42:44Z</time>
      </trkpt>
      <trkpt lat="46.69308" lon="5.55064">
        <ele>289</ele>
        <time>2019-04-01T15:43:44Z</time>
      </trkpt>
      <trkpt lat="46.693" lon="5.55046">
        <ele>288</ele>
        <time>2019-04-01T15:44:44Z</time>
      </trkpt>
      <trkpt lat="46.69291" lon="5.55031">
        <ele>287</ele>
        <time>2019-04-01T15:45:44Z</time>
      </trkpt>
      <trkpt lat="46.69283" lon="5.55015">
        <ele>286</ele>
        <time>2019-04-01T15:46:44Z</time>
      </trkpt>
      <trkpt lat="46.69278" lon="5.54997">
        <ele>284</ele>
        <time>2019-04-01T15:47:44Z</time>
      </trkpt>
      <trkpt lat="46.69276" lon="5.54971">
        <ele>284</ele>
        <time>2019-04-01T15:48:44Z</time>
      </trkpt>
      <trkpt lat="46.69277" lon="5.54861">
        <ele>282</ele>
        <time>2019-04-01T15:49:44Z</time>
      </trkpt>
      <trkpt lat="46.69277" lon="5.54832">
        <ele>281</ele>
        <time>2019-04-01T15:50:44Z</time>
      </trkpt>
      <trkpt lat="46.69279" lon="5.54811">
        <ele>281</ele>
        <time>2019-04-01T15:51:44Z</time>
      </trkpt>
      <trkpt lat="46.69288" lon="5.5477">
        <ele>280</ele>
        <time>2019-04-01T15:52:44Z</time>
      </trkpt>
      <trkpt lat="46.69302" lon="5.5471">
        <ele>280</ele>
        <time>2019-04-01T15:53:44Z</time>
      </trkpt>
      <trkpt lat="46.6931" lon="5.54626">
        <ele>280</ele>
        <time>2019-04-01T15:54:44Z</time>
      </trkpt>
      <trkpt lat="46.69315" lon="5.54587">
        <ele>280</ele>
        <time>2019-04-01T15:55:44Z</time>
      </trkpt>
      <trkpt lat="46.69318" lon="5.54554">
        <ele>279</ele>
        <time>2019-04-01T15:56:44Z</time>
      </trkpt>
      <trkpt lat="46.69323" lon="5.54522">
        <ele>279</ele>
        <time>2019-04-01T15:57:44Z</time>
      </trkpt>
      <trkpt lat="46.6933" lon="5.54489">
        <ele>277</ele>
        <time>2019-04-01T15:58:44Z</time>
      </trkpt>
      <trkpt lat="46.69338" lon="5.54464">
        <ele>276</ele>
        <time>2019-04-01T15:59:44Z</time>
      </trkpt>
      <trkpt lat="46.69353" lon="5.54435">
        <ele>275</ele>
        <time>2019-04-01T16:00:44Z</time>
      </trkpt>
      <trkpt lat="46.69357" lon="5.5443">
        <ele>276</ele>
        <time>2019-04-01T16:01:44Z</time>
      </trkpt>
      <trkpt lat="46.69368" lon="5.54421">
        <ele>276</ele>
        <time>2019-04-01T16:02:44Z</time>
      </trkpt>
      <trkpt lat="46.69385" lon="5.54406">
        <ele>278</ele>
        <time>2019-04-01T16:03:44Z</time>
      </trkpt>
      <trkpt lat="46.69394" lon="5.544">
        <ele>278</ele>
        <time>2019-04-01T16:04:44Z</time>
      </trkpt>
      <trkpt lat="46.69458" lon="5.5435">
        <ele>278</ele>
        <time>2019-04-01T16:05:44Z</time>
      </trkpt>
      <trkpt lat="46.6948" lon="5.54327">
        <ele>276</ele>
        <time>2019-04-01T16:06:44Z</time>
      </trkpt>
      <trkpt lat="46.69491" lon="5.54313">
        <ele>275</ele>
        <time>2019-04-01T16:07:44Z</time>
      </trkpt>
      <trkpt lat="46.69506" lon="5.54294">
        <ele>274</ele>
        <time>2019-04-01T16:08:44Z</time>
      </trkpt>
      <trkpt lat="46.69514" lon="5.54276">
        <ele>273</ele>
        <time>2019-04-01T16:09:44Z</time>
      </trkpt>
      <trkpt lat="46.69521" lon="5.54266">
        <ele>272</ele>
        <time>2019-04-01T16:10:44Z</time>
      </trkpt>
      <trkpt lat="46.69549" lon="5.54251">
        <ele>273</ele>
        <time>2019-04-01T16:11:44Z</time>
      </trkpt>
      <trkpt lat="46.69581" lon="5.54235">
        <ele>275</ele>
        <time>2019-04-01T16:12:44Z</time>
      </trkpt>
      <trkpt lat="46.69606" lon="5.54218">
        <ele>275</ele>
        <time>2019-04-01T16:13:44Z</time>
      </trkpt>
      <trkpt lat="46.69615" lon="5.54215">
        <ele>275</ele>
        <time>2019-04-01T16:14:44Z</time>
      </trkpt>
      <trkpt lat="46.69641" lon="5.54217">
        <ele>277</ele>
        <time>2019-04-01T16:15:44Z</time>
      </trkpt>
      <trkpt lat="46.69663" lon="5.54221">
        <ele>280</ele>
        <time>2019-04-01T16:16:44Z</time>
      </trkpt>
      <trkpt lat="46.69687" lon="5.54225">
        <ele>281</ele>
        <time>2019-04-01T16:17:44Z</time>
      </trkpt>
      <trkpt lat="46.69705" lon="5.54229">
        <ele>283</ele>
        <time>2019-04-01T16:18:44Z</time>
      </trkpt>
      <trkpt lat="46.69728" lon="5.5424">
        <ele>286</ele>
        <time>2019-04-01T16:19:44Z</time>
      </trkpt>
      <trkpt lat="46.69741" lon="5.54242">
        <ele>286</ele>
        <time>2019-04-01T16:20:44Z</time>
      </trkpt>
      <trkpt lat="46.69759" lon="5.54242">
        <ele>287</ele>
        <time>2019-04-01T16:21:44Z</time>
      </trkpt>
      <trkpt lat="46.69785" lon="5.54245">
        <ele>287</ele>
        <time>2019-04-01T16:22:44Z</time>
      </trkpt>
      <trkpt lat="46.69795" lon="5.5425">
        <ele>287</ele>
        <time>2019-04-01T16:23:44Z</time>
      </trkpt>
      <trkpt lat="46.69813" lon="5.54262">
        <ele>287</ele>
        <time>2019-04-01T16:24:44Z</time>
      </trkpt>
      <trkpt lat="46.69827" lon="5.5427">
        <ele>287</ele>
        <time>2019-04-01T16:25:44Z</time>
      </trkpt>
      <trkpt lat="46.69869" lon="5.54281">
        <ele>285</ele>
        <time>2019-04-01T16:26:44Z</time>
      </trkpt>
      <trkpt lat="46.69883" lon="5.54286">
        <ele>284</ele>
        <time>2019-04-01T16:27:44Z</time>
      </trkpt>
      <trkpt lat="46.69915" lon="5.54291">
        <ele>282</ele>
        <time>2019-04-01T16:28:44Z</time>
      </trkpt>
      <trkpt lat="46.69928" lon="5.5429">
        <ele>281</ele>
        <time>2019-04-01T16:29:44Z</time>
      </trkpt>
      <trkpt lat="46.69942" lon="5.54283">
        <ele>281</ele>
        <time>2019-04-01T16:30:44Z</time>
      </trkpt>
      <trkpt lat="46.69981" lon="5.54255">
        <ele>278</ele>
        <time>2019-04-01T16:31:44Z</time>
      </trkpt>
      <trkpt lat="46.69999" lon="5.54245">
        <ele>278</ele>
        <time>2019-04-01T16:32:44Z</time>
      </trkpt>
      <trkpt lat="46.70046" lon="5.54228">
        <ele>276</ele>
        <time>2019-04-01T16:33:44Z</time>
      </trkpt>
      <trkpt lat="46.70064" lon="5.54223">
        <ele>275</ele>
        <time>2019-04-01T16:34:44Z</time>
      </trkpt>
      <trkpt lat="46.70073" lon="5.54219">
        <ele>275</ele>
        <time>2019-04-01T16:35:44Z</time>
      </trkpt>
      <trkpt lat="46.70074" lon="5.54219">
        <ele>275</ele>
        <time>2019-04-01T16:36:44Z</time>
      </trkpt>
      <trkpt lat="46.70121" lon="5.54155">
        <ele>267</ele>
        <time>2019-04-01T16:37:44Z</time>
      </trkpt>
      <trkpt lat="46.70141" lon="5.54127">
        <ele>266</ele>
        <time>2019-04-01T16:38:44Z</time>
      </trkpt>
      <trkpt lat="46.70174" lon="5.54083">
        <ele>263</ele>
        <time>2019-04-01T16:39:44Z</time>
      </trkpt>
      <trkpt lat="46.70185" lon="5.54068">
        <ele>263</ele>
        <time>2019-04-01T16:40:44Z</time>
      </trkpt>
      <trkpt lat="46.702" lon="5.5405">
        <ele>264</ele>
        <time>2019-04-01T16:41:44Z</time>
      </trkpt>
      <trkpt lat="46.70211" lon="5.54039">
        <ele>264</ele>
        <time>2019-04-01T16:42:44Z</time>
      </trkpt>
      <trkpt lat="46.70218" lon="5.54033">
        <ele>264</ele>
        <time>2019-04-01T16:43:44Z</time>
      </trkpt>
      <trkpt lat="46.70244" lon="5.54015">
        <ele>264</ele>
        <time>2019-04-01T16:44:44Z</time>
      </trkpt>
      <trkpt lat="46.70271" lon="5.53996">
        <ele>265</ele>
        <time>2019-04-01T16:45:44Z</time>
      </trkpt>
      <trkpt lat="46.70332" lon="5.53952">
        <ele>271</ele>
        <time>2019-04-01T16:46:44Z</time>
      </trkpt>
      <trkpt lat="46.70355" lon="5.53938">
        <ele>273</ele>
        <time>2019-04-01T16:47:44Z</time>
      </trkpt>
      <trkpt lat="46.7039" lon="5.53912">
        <ele>274</ele>
        <time>2019-04-01T16:48:44Z</time>
      </trkpt>
      <trkpt lat="46.70404" lon="5.53901">
        <ele>275</ele>
        <time>2019-04-01T16:49:44Z</time>
      </trkpt>
      <trkpt lat="46.70459" lon="5.53863">
        <ele>279</ele>
        <time>2019-04-01T16:50:44Z</time>
      </trkpt>
      <trkpt lat="46.70485" lon="5.53844">
        <ele>281</ele>
        <time>2019-04-01T16:51:44Z</time>
      </trkpt>
      <trkpt lat="46.70506" lon="5.53831">
        <ele>282</ele>
        <time>2019-04-01T16:52:44Z</time>
      </trkpt>
      <trkpt lat="46.7052" lon="5.53821">
        <ele>283</ele>
        <time>2019-04-01T16:53:44Z</time>
      </trkpt>
      <trkpt lat="46.70539" lon="5.53813">
        <ele>283</ele>
        <time>2019-04-01T16:54:44Z</time>
      </trkpt>
      <trkpt lat="46.70559" lon="5.53806">
        <ele>284</ele>
        <time>2019-04-01T16:55:44Z</time>
      </trkpt>
      <trkpt lat="46.70574" lon="5.53808">
        <ele>284</ele>
        <time>2019-04-01T16:56:44Z</time>
      </trkpt>
      <trkpt lat="46.70588" lon="5.53811">
        <ele>285</ele>
        <time>2019-04-01T16:57:44Z</time>
      </trkpt>
      <trkpt lat="46.7061" lon="5.53819">
        <ele>286</ele>
        <time>2019-04-01T16:58:44Z</time>
      </trkpt>
      <trkpt lat="46.70616" lon="5.53823">
        <ele>286</ele>
        <time>2019-04-01T16:59:44Z</time>
      </trkpt>
      <trkpt lat="46.70623" lon="5.53828">
        <ele>286</ele>
        <time>2019-04-01T17:00:44Z</time>
      </trkpt>
      <trkpt lat="46.7064" lon="5.53836">
        <ele>287</ele>
        <time>2019-04-01T17:01:44Z</time>
      </trkpt>
      <trkpt lat="46.70649" lon="5.5384">
        <ele>287</ele>
        <time>2019-04-01T17:02:44Z</time>
      </trkpt>
      <trkpt lat="46.70663" lon="5.53844">
        <ele>288</ele>
        <time>2019-04-01T17:03:44Z</time>
      </trkpt>
      <trkpt lat="46.70682" lon="5.5385">
        <ele>289</ele>
        <time>2019-04-01T17:04:44Z</time>
      </trkpt>
      <trkpt lat="46.70707" lon="5.5386">
        <ele>290</ele>
        <time>2019-04-01T17:05:44Z</time>
      </trkpt>
      <trkpt lat="46.70719" lon="5.53866">
        <ele>291</ele>
        <time>2019-04-01T17:06:44Z</time>
      </trkpt>
      <trkpt lat="46.70742" lon="5.53875">
        <ele>291</ele>
        <time>2019-04-01T17:07:44Z</time>
      </trkpt>
      <trkpt lat="46.70756" lon="5.53879">
        <ele>291</ele>
        <time>2019-04-01T17:08:44Z</time>
      </trkpt>
      <trkpt lat="46.70784" lon="5.53885">
        <ele>292</ele>
        <time>2019-04-01T17:09:44Z</time>
      </trkpt>
      <trkpt lat="46.70823" lon="5.53892">
        <ele>294</ele>
        <time>2019-04-01T17:10:44Z</time>
      </trkpt>
      <trkpt lat="46.70852" lon="5.53897">
        <ele>294</ele>
        <time>2019-04-01T17:11:44Z</time>
      </trkpt>
      <trkpt lat="46.70888" lon="5.53908">
        <ele>294</ele>
        <time>2019-04-01T17:12:44Z</time>
      </trkpt>
      <trkpt lat="46.70904" lon="5.53912">
        <ele>295</ele>
        <time>2019-04-01T17:13:44Z</time>
      </trkpt>
      <trkpt lat="46.70924" lon="5.53913">
        <ele>295</ele>
        <time>2019-04-01T17:14:44Z</time>
      </trkpt>
      <trkpt lat="46.70939" lon="5.53912">
        <ele>294</ele>
        <time>2019-04-01T17:15:44Z</time>
      </trkpt>
      <trkpt lat="46.70966" lon="5.53909">
        <ele>293</ele>
        <time>2019-04-01T17:16:44Z</time>
      </trkpt>
      <trkpt lat="46.70992" lon="5.539">
        <ele>292</ele>
        <time>2019-04-01T17:17:44Z</time>
      </trkpt>
      <trkpt lat="46.71014" lon="5.53892">
        <ele>291</ele>
        <time>2019-04-01T17:18:44Z</time>
      </trkpt>
      <trkpt lat="46.71045" lon="5.53874">
        <ele>290</ele>
        <time>2019-04-01T17:19:44Z</time>
      </trkpt>
      <trkpt lat="46.71061" lon="5.53864">
        <ele>289</ele>
        <time>2019-04-01T17:20:44Z</time>
      </trkpt>
      <trkpt lat="46.71094" lon="5.53847">
        <ele>287</ele>
        <time>2019-04-01T17:21:44Z</time>
      </trkpt>
      <trkpt lat="46.71116" lon="5.53835">
        <ele>286</ele>
        <time>2019-04-01T17:22:44Z</time>
      </trkpt>
      <trkpt lat="46.71142" lon="5.53814">
        <ele>285</ele>
        <time>2019-04-01T17:23:44Z</time>
      </trkpt>
      <trkpt lat="46.71169" lon="5.53794">
        <ele>285</ele>
        <time>2019-04-01T17:24:44Z</time>
      </trkpt>
      <trkpt lat="46.71192" lon="5.5378">
        <ele>285</ele>
        <time>2019-04-01T17:25:44Z</time>
      </trkpt>
      <trkpt lat="46.71206" lon="5.53766">
        <ele>284</ele>
        <time>2019-04-01T17:26:44Z</time>
      </trkpt>
      <trkpt lat="46.71215" lon="5.53755">
        <ele>284</ele>
        <time>2019-04-01T17:27:44Z</time>
      </trkpt>
      <trkpt lat="46.7123" lon="5.53741">
        <ele>284</ele>
        <time>2019-04-01T17:28:44Z</time>
      </trkpt>
      <trkpt lat="46.71239" lon="5.53736">
        <ele>284</ele>
        <time>2019-04-01T17:29:44Z</time>
      </trkpt>
      <trkpt lat="46.71247" lon="5.53723">
        <ele>285</ele>
        <time>2019-04-01T17:30:44Z</time>
      </trkpt>
      <trkpt lat="46.71248" lon="5.53714">
        <ele>285</ele>
        <time>2019-04-01T17:31:44Z</time>
      </trkpt>
      <trkpt lat="46.71255" lon="5.53699">
        <ele>286</ele>
        <time>2019-04-01T17:32:44Z</time>
      </trkpt>
      <trkpt lat="46.7128" lon="5.53657">
        <ele>286</ele>
        <time>2019-04-01T17:33:44Z</time>
      </trkpt>
      <trkpt lat="46.71294" lon="5.53623">
        <ele>288</ele>
        <time>2019-04-01T17:34:44Z</time>
      </trkpt>
      <trkpt lat="46.71325" lon="5.53578">
        <ele>289</ele>
        <time>2019-04-01T17:35:44Z</time>
      </trkpt>
      <trkpt lat="46.71339" lon="5.53558">
        <ele>290</ele>
        <time>2019-04-01T17:36:44Z</time>
      </trkpt>
      <trkpt lat="46.71361" lon="5.53534">
        <ele>291</ele>
        <time>2019-04-01T17:37:44Z</time>
      </trkpt>
      <trkpt lat="46.71368" lon="5.53522">
        <ele>292</ele>
        <time>2019-04-01T17:38:44Z</time>
      </trkpt>
      <trkpt lat="46.71369" lon="5.53519">
        <ele>292</ele>
        <time>2019-04-01T17:39:44Z</time>
      </trkpt>
      <trkpt lat="46.71373" lon="5.53509">
        <ele>292</ele>
        <time>2019-04-01T17:40:44Z</time>
      </trkpt>
      <trkpt lat="46.71374" lon="5.53492">
        <ele>294</ele>
        <time>2019-04-01T17:41:44Z</time>
      </trkpt>
      <trkpt lat="46.71374" lon="5.53459">
        <ele>299</ele>
        <time>2019-04-01T17:42:44Z</time>
      </trkpt>
      <trkpt lat="46.71376" lon="5.53434">
        <ele>302</ele>
        <time>2019-04-01T17:43:44Z</time>
      </trkpt>
      <trkpt lat="46.71384" lon="5.5341">
        <ele>305</ele>
        <time>2019-04-01T17:44:44Z</time>
      </trkpt>
      <trkpt lat="46.71409" lon="5.53383">
        <ele>306</ele>
        <time>2019-04-01T17:45:44Z</time>
      </trkpt>
      <trkpt lat="46.71445" lon="5.53347">
        <ele>305</ele>
        <time>2019-04-01T17:46:44Z</time>
      </trkpt>
      <trkpt lat="46.71462" lon="5.53384">
        <ele>296</ele>
        <time>2019-04-01T17:47:44Z</time>
      </trkpt>
      <trkpt lat="46.71481" lon="5.53412">
        <ele>290</ele>
        <time>2019-04-01T17:48:44Z</time>
      </trkpt>
      <trkpt lat="46.71502" lon="5.53437">
        <ele>284</ele>
        <time>2019-04-01T17:49:44Z</time>
      </trkpt>
      <trkpt lat="46.71512" lon="5.53452">
        <ele>282</ele>
        <time>2019-04-01T17:50:44Z</time>
      </trkpt>
      <trkpt lat="46.71532" lon="5.53494">
        <ele>276</ele>
        <time>2019-04-01T17:51:44Z</time>
      </trkpt>
      <trkpt lat="46.71548" lon="5.53511">
        <ele>275</ele>
        <time>2019-04-01T17:52:44Z</time>
      </trkpt>
      <trkpt lat="46.71557" lon="5.5353">
        <ele>275</ele>
        <time>2019-04-01T17:53:44Z</time>
      </trkpt>
      <trkpt lat="46.71562" lon="5.53526">
        <ele>274</ele>
        <time>2019-04-01T17:54:44Z</time>
      </trkpt>
      <trkpt lat="46.71587" lon="5.53512">
        <ele>273</ele>
        <time>2019-04-01T17:55:44Z</time>
      </trkpt>
      <trkpt lat="46.71602" lon="5.53504">
        <ele>273</ele>
        <time>2019-04-01T17:56:44Z</time>
      </trkpt>
      <trkpt lat="46.71614" lon="5.53496">
        <ele>273</ele>
        <time>2019-04-01T17:57:44Z</time>
      </trkpt>
      <trkpt lat="46.71638" lon="5.53481">
        <ele>273</ele>
        <time>2019-04-01T17:58:44Z</time>
      </trkpt>
      <trkpt lat="46.71654" lon="5.53468">
        <ele>272</ele>
        <time>2019-04-01T17:59:44Z</time>
      </trkpt>
      <trkpt lat="46.71665" lon="5.53456">
        <ele>272</ele>
        <time>2019-04-01T18:00:44Z</time>
      </trkpt>
      <trkpt lat="46.71669" lon="5.5345">
        <ele>271</ele>
        <time>2019-04-01T18:01:44Z</time>
      </trkpt>
      <trkpt lat="46.71675" lon="5.5347">
        <ele>272</ele>
        <time>2019-04-01T18:02:44Z</time>
      </trkpt>
      <trkpt lat="46.71677" lon="5.53478">
        <ele>272</ele>
        <time>2019-04-01T18:03:44Z</time>
      </trkpt>
      <trkpt lat="46.71679" lon="5.5349">
        <ele>273</ele>
        <time>2019-04-01T18:04:44Z</time>
      </trkpt>
      <trkpt lat="46.71683" lon="5.53504">
        <ele>274</ele>
        <time>2019-04-01T18:05:44Z</time>
      </trkpt>
      <trkpt lat="46.71687" lon="5.53519">
        <ele>274</ele>
        <time>2019-04-01T18:06:44Z</time>
      </trkpt>
      <trkpt lat="46.71711" lon="5.53572">
        <ele>278</ele>
        <time>2019-04-01T18:07:44Z</time>
      </trkpt>
      <trkpt lat="46.71723" lon="5.536">
        <ele>280</ele>
        <time>2019-04-01T18:08:44Z</time>
      </trkpt>
      <trkpt lat="46.71729" lon="5.53619">
        <ele>281</ele>
        <time>2019-04-01T18:09:44Z</time>
      </trkpt>
      <trkpt lat="46.71735" lon="5.5364">
        <ele>282</ele>
        <time>2019-04-01T18:10:44Z</time>
      </trkpt>
      <trkpt lat="46.71745" lon="5.53663">
        <ele>283</ele>
        <time>2019-04-01T18:11:44Z</time>
      </trkpt>
      <trkpt lat="46.71794" lon="5.53761">
        <ele>291</ele>
        <time>2019-04-01T18:12:44Z</time>
      </trkpt>
      <trkpt lat="46.71798" lon="5.53767">
        <ele>291</ele>
        <time>2019-04-01T18:13:44Z</time>
      </trkpt>
      <trkpt lat="46.71797" lon="5.53773">
        <ele>291</ele>
        <time>2019-04-01T18:14:44Z</time>
      </trkpt>
      <trkpt lat="46.71783" lon="5.53814">
        <ele>294</ele>
        <time>2019-04-01T18:15:44Z</time>
      </trkpt>
      <trkpt lat="46.71777" lon="5.53832">
        <ele>295</ele>
        <time>2019-04-01T18:16:44Z</time>
      </trkpt>
      <trkpt lat="46.71767" lon="5.53865">
        <ele>297</ele>
        <time>2019-04-01T18:17:44Z</time>
      </trkpt>
      <trkpt lat="46.71759" lon="5.53895">
        <ele>298</ele>
        <time>2019-04-01T18:18:44Z</time>
      </trkpt>
      <trkpt lat="46.71756" lon="5.53913">
        <ele>299</ele>
        <time>2019-04-01T18:19:44Z</time>
      </trkpt>
      <trkpt lat="46.7175" lon="5.53963">
        <ele>303</ele>
        <time>2019-04-01T18:20:44Z</time>
      </trkpt>
      <trkpt lat="46.71747" lon="5.5398">
        <ele>304</ele>
        <time>2019-04-01T18:21:44Z</time>
      </trkpt>
      <trkpt lat="46.71748" lon="5.53985">
        <ele>304</ele>
        <time>2019-04-01T18:22:44Z</time>
      </trkpt>
      <trkpt lat="46.71752" lon="5.53989">
        <ele>304</ele>
        <time>2019-04-01T18:23:44Z</time>
      </trkpt>
      <trkpt lat="46.71761" lon="5.53995">
        <ele>304</ele>
        <time>2019-04-01T18:24:44Z</time>
      </trkpt>
      <trkpt lat="46.7179" lon="5.54019">
        <ele>306</ele>
        <time>2019-04-01T18:25:44Z</time>
      </trkpt>
      <trkpt lat="46.71798" lon="5.54026">
        <ele>306</ele>
        <time>2019-04-01T18:26:44Z</time>
      </trkpt>
      <trkpt lat="46.71804" lon="5.54037">
        <ele>307</ele>
        <time>2019-04-01T18:27:44Z</time>
      </trkpt>
      <trkpt lat="46.71814" lon="5.54064">
        <ele>309</ele>
        <time>2019-04-01T18:28:44Z</time>
      </trkpt>
      <trkpt lat="46.7185" lon="5.54092">
        <ele>311</ele>
        <time>2019-04-01T18:29:44Z</time>
      </trkpt>
      <trkpt lat="46.71878" lon="5.54105">
        <ele>312</ele>
        <time>2019-04-01T18:30:44Z</time>
      </trkpt>
      <trkpt lat="46.71889" lon="5.54111">
        <ele>312</ele>
        <time>2019-04-01T18:31:44Z</time>
      </trkpt>
      <trkpt lat="46.71898" lon="5.54117">
        <ele>312</ele>
        <time>2019-04-01T18:32:44Z</time>
      </trkpt>
      <trkpt lat="46.7191" lon="5.54121">
        <ele>313</ele>
        <time>2019-04-01T18:33:44Z</time>
      </trkpt>
      <trkpt lat="46.71925" lon="5.54123">
        <ele>313</ele>
        <time>2019-04-01T18:34:44Z</time>
      </trkpt>
      <trkpt lat="46.71964" lon="5.54123">
        <ele>316</ele>
        <time>2019-04-01T18:35:44Z</time>
      </trkpt>
      <trkpt lat="46.71969" lon="5.54123">
        <ele>316</ele>
        <time>2019-04-01T18:36:44Z</time>
      </trkpt>
      <trkpt lat="46.71997" lon="5.54125">
        <ele>318</ele>
        <time>2019-04-01T18:37:44Z</time>
      </trkpt>
      <trkpt lat="46.72002" lon="5.54124">
        <ele>318</ele>
        <time>2019-04-01T18:38:44Z</time>
      </trkpt>
      <trkpt lat="46.72078" lon="5.54133">
        <ele>323</ele>
        <time>2019-04-01T18:39:44Z</time>
      </trkpt>
      <trkpt lat="46.72097" lon="5.54133">
        <ele>323</ele>
        <time>2019-04-01T18:40:44Z</time>
      </trkpt>
      <trkpt lat="46.72112" lon="5.54146">
        <ele>325</ele>
        <time>2019-04-01T18:41:44Z</time>
      </trkpt>
      <trkpt lat="46.72131" lon="5.54155">
        <ele>328</ele>
        <time>2019-04-01T18:42:44Z</time>
      </trkpt>
      <trkpt lat="46.72158" lon="5.54166">
        <ele>331</ele>
        <time>2019-04-01T18:43:44Z</time>
      </trkpt>
      <trkpt lat="46.72195" lon="5.54178">
        <ele>333</ele>
        <time>2019-04-01T18:44:44Z</time>
      </trkpt>
      <trkpt lat="46.7222" lon="5.54184">
        <ele>334</ele>
        <time>2019-04-01T18:45:44Z</time>
      </trkpt>
      <trkpt lat="46.72243" lon="5.54189">
        <ele>335</ele>
        <time>2019-04-01T18:46:44Z</time>
      </trkpt>
      <trkpt lat="46.72253" lon="5.54195">
        <ele>336</ele>
        <time>2019-04-01T18:47:44Z</time>
      </trkpt>
      <trkpt lat="46.72269" lon="5.5421">
        <ele>338</ele>
        <time>2019-04-01T18:48:44Z</time>
      </trkpt>
      <trkpt lat="46.72289" lon="5.54226">
        <ele>341</ele>
        <time>2019-04-01T18:49:44Z</time>
      </trkpt>
      <trkpt lat="46.7232" lon="5.5425">
        <ele>345</ele>
        <time>2019-04-01T18:50:44Z</time>
      </trkpt>
      <trkpt lat="46.72323" lon="5.54254">
        <ele>346</ele>
        <time>2019-04-01T18:51:44Z</time>
      </trkpt>
      <trkpt lat="46.72325" lon="5.5426">
        <ele>347</ele>
        <time>2019-04-01T18:52:44Z</time>
      </trkpt>
      <trkpt lat="46.72342" lon="5.54258">
        <ele>345</ele>
        <time>2019-04-01T18:53:44Z</time>
      </trkpt>
      <trkpt lat="46.72377" lon="5.5427">
        <ele>345</ele>
        <time>2019-04-01T18:54:44Z</time>
      </trkpt>
      <trkpt lat="46.725" lon="5.54351">
        <ele>349</ele>
        <time>2019-04-01T18:55:44Z</time>
      </trkpt>
      <trkpt lat="46.72562" lon="5.5439">
        <ele>350</ele>
        <time>2019-04-01T18:56:44Z</time>
      </trkpt>
      <trkpt lat="46.72639" lon="5.54451">
        <ele>350</ele>
        <time>2019-04-01T18:57:44Z</time>
      </trkpt>
      <trkpt lat="46.72647" lon="5.54465">
        <ele>350</ele>
        <time>2019-04-01T18:58:44Z</time>
      </trkpt>
      <trkpt lat="46.72663" lon="5.54466">
        <ele>349</ele>
        <time>2019-04-01T18:59:44Z</time>
      </trkpt>
      <trkpt lat="46.72719" lon="5.54482">
        <ele>346</ele>
        <time>2019-04-01T19:00:44Z</time>
      </trkpt>
      <trkpt lat="46.72745" lon="5.54501">
        <ele>346</ele>
        <time>2019-04-01T19:01:44Z</time>
      </trkpt>
      <trkpt lat="46.72767" lon="5.54503">
        <ele>345</ele>
        <time>2019-04-01T19:02:44Z</time>
      </trkpt>
      <trkpt lat="46.7278" lon="5.54502">
        <ele>345</ele>
        <time>2019-04-01T19:03:44Z</time>
      </trkpt>
      <trkpt lat="46.72793" lon="5.545">
        <ele>344</ele>
        <time>2019-04-01T19:04:44Z</time>
      </trkpt>
      <trkpt lat="46.72807" lon="5.54499">
        <ele>343</ele>
        <time>2019-04-01T19:05:44Z</time>
      </trkpt>
      <trkpt lat="46.72846" lon="5.54492">
        <ele>340</ele>
        <time>2019-04-01T19:06:44Z</time>
      </trkpt>
      <trkpt lat="46.7286" lon="5.54486">
        <ele>337</ele>
        <time>2019-04-01T19:07:44Z</time>
      </trkpt>
      <trkpt lat="46.72884" lon="5.5447">
        <ele>333</ele>
        <time>2019-04-01T19:08:44Z</time>
      </trkpt>
      <trkpt lat="46.72896" lon="5.5446">
        <ele>332</ele>
        <time>2019-04-01T19:09:44Z</time>
      </trkpt>
      <trkpt lat="46.72907" lon="5.54447">
        <ele>330</ele>
        <time>2019-04-01T19:10:44Z</time>
      </trkpt>
      <trkpt lat="46.72914" lon="5.54434">
        <ele>329</ele>
        <time>2019-04-01T19:11:44Z</time>
      </trkpt>
      <trkpt lat="46.72922" lon="5.54416">
        <ele>328</ele>
        <time>2019-04-01T19:12:44Z</time>
      </trkpt>
      <trkpt lat="46.72926" lon="5.54406">
        <ele>328</ele>
        <time>2019-04-01T19:13:44Z</time>
      </trkpt>
      <trkpt lat="46.72936" lon="5.54419">
        <ele>328</ele>
        <time>2019-04-01T19:14:44Z</time>
      </trkpt>
      <trkpt lat="46.72947" lon="5.54434">
        <ele>328</ele>
        <time>2019-04-01T19:15:44Z</time>
      </trkpt>
      <trkpt lat="46.72959" lon="5.54459">
        <ele>328</ele>
        <time>2019-04-01T19:16:44Z</time>
      </trkpt>
      <trkpt lat="46.72966" lon="5.5447">
        <ele>327</ele>
        <time>2019-04-01T19:17:44Z</time>
      </trkpt>
      <trkpt lat="46.72973" lon="5.54483">
        <ele>327</ele>
        <time>2019-04-01T19:18:44Z</time>
      </trkpt>
      <trkpt lat="46.72991" lon="5.54519">
        <ele>326</ele>
        <time>2019-04-01T19:19:44Z</time>
      </trkpt>
      <trkpt lat="46.72997" lon="5.54527">
        <ele>325</ele>
        <time>2019-04-01T19:20:44Z</time>
      </trkpt>
      <trkpt lat="46.73011" lon="5.54542">
        <ele>324</ele>
        <time>2019-04-01T19:21:44Z</time>
      </trkpt>
      <trkpt lat="46.73025" lon="5.54555">
        <ele>322</ele>
        <time>2019-04-01T19:22:44Z</time>
      </trkpt>
      <trkpt lat="46.73051" lon="5.54576">
        <ele>319</ele>
        <time>2019-04-01T19:23:44Z</time>
      </trkpt>
      <trkpt lat="46.73068" lon="5.54592">
        <ele>317</ele>
        <time>2019-04-01T19:24:44Z</time>
      </trkpt>
      <trkpt lat="46.73091" lon="5.54616">
        <ele>314</ele>
        <time>2019-04-01T19:25:44Z</time>
      </trkpt>
      <trkpt lat="46.73112" lon="5.54642">
        <ele>312</ele>
        <time>2019-04-01T19:26:44Z</time>
      </trkpt>
      <trkpt lat="46.7313" lon="5.54656">
        <ele>310</ele>
        <time>2019-04-01T19:27:44Z</time>
      </trkpt>
      <trkpt lat="46.73149" lon="5.54667">
        <ele>308</ele>
        <time>2019-04-01T19:28:44Z</time>
      </trkpt>
      <trkpt lat="46.73179" lon="5.54675">
        <ele>303</ele>
        <time>2019-04-01T19:29:44Z</time>
      </trkpt>
      <trkpt lat="46.73198" lon="5.54682">
        <ele>300</ele>
        <time>2019-04-01T19:30:44Z</time>
      </trkpt>
      <trkpt lat="46.73211" lon="5.54689">
        <ele>298</ele>
        <time>2019-04-01T19:31:44Z</time>
      </trkpt>
      <trkpt lat="46.73227" lon="5.54696">
        <ele>296</ele>
        <time>2019-04-01T19:32:44Z</time>
      </trkpt>
      <trkpt lat="46.7324" lon="5.54702">
        <ele>294</ele>
        <time>2019-04-01T19:33:44Z</time>
      </trkpt>
      <trkpt lat="46.73255" lon="5.54711">
        <ele>292</ele>
        <time>2019-04-01T19:34:44Z</time>
      </trkpt>
      <trkpt lat="46.73266" lon="5.54717">
        <ele>291</ele>
        <time>2019-04-01T19:35:44Z</time>
      </trkpt>
      <trkpt lat="46.73271" lon="5.54723">
        <ele>291</ele>
        <time>2019-04-01T19:36:44Z</time>
      </trkpt>
      <trkpt lat="46.73277" lon="5.54732">
        <ele>290</ele>
        <time>2019-04-01T19:37:44Z</time>
      </trkpt>
      <trkpt lat="46.73288" lon="5.54751">
        <ele>288</ele>
        <time>2019-04-01T19:38:44Z</time>
      </trkpt>
      <trkpt lat="46.73296" lon="5.54767">
        <ele>285</ele>
        <time>2019-04-01T19:39:44Z</time>
      </trkpt>
      <trkpt lat="46.73301" lon="5.54788">
        <ele>284</ele>
        <time>2019-04-01T19:40:44Z</time>
      </trkpt>
      <trkpt lat="46.73302" lon="5.54803">
        <ele>283</ele>
        <time>2019-04-01T19:41:44Z</time>
      </trkpt>
      <trkpt lat="46.73293" lon="5.54823">
        <ele>283</ele>
        <time>2019-04-01T19:42:44Z</time>
      </trkpt>
      <trkpt lat="46.73283" lon="5.54841">
        <ele>283</ele>
        <time>2019-04-01T19:43:44Z</time>
      </trkpt>
      <trkpt lat="46.73277" lon="5.54856">
        <ele>284</ele>
        <time>2019-04-01T19:44:44Z</time>
      </trkpt>
      <trkpt lat="46.73274" lon="5.54865">
        <ele>284</ele>
        <time>2019-04-01T19:45:44Z</time>
      </trkpt>
      <trkpt lat="46.73273" lon="5.54875">
        <ele>284</ele>
        <time>2019-04-01T19:46:44Z</time>
      </trkpt>
      <trkpt lat="46.73272" lon="5.54891">
        <ele>284</ele>
        <time>2019-04-01T19:47:44Z</time>
      </trkpt>
      <trkpt lat="46.73272" lon="5.54901">
        <ele>284</ele>
        <time>2019-04-01T19:48:44Z</time>
      </trkpt>
      <trkpt lat="46.73269" lon="5.5491">
        <ele>284</ele>
        <time>2019-04-01T19:49:44Z</time>
      </trkpt>
      <trkpt lat="46.73264" lon="5.54919">
        <ele>284</ele>
        <time>2019-04-01T19:50:44Z</time>
      </trkpt>
      <trkpt lat="46.73256" lon="5.54928">
        <ele>284</ele>
        <time>2019-04-01T19:51:44Z</time>
      </trkpt>
      <trkpt lat="46.73248" lon="5.54944">
        <ele>284</ele>
        <time>2019-04-01T19:52:44Z</time>
      </trkpt>
      <trkpt lat="46.73246" lon="5.54953">
        <ele>284</ele>
        <time>2019-04-01T19:53:44Z</time>
      </trkpt>
      <trkpt lat="46.73237" lon="5.54976">
        <ele>285</ele>
        <time>2019-04-01T19:54:44Z</time>
      </trkpt>
      <trkpt lat="46.73212" lon="5.5503">
        <ele>286</ele>
        <time>2019-04-01T19:55:44Z</time>
      </trkpt>
      <trkpt lat="46.73189" lon="5.55078">
        <ele>286</ele>
        <time>2019-04-01T19:56:44Z</time>
      </trkpt>
      <trkpt lat="46.73172" lon="5.55125">
        <ele>287</ele>
        <time>2019-04-01T19:57:44Z</time>
      </trkpt>
      <trkpt lat="46.73164" lon="5.55153">
        <ele>287</ele>
        <time>2019-04-01T19:58:44Z</time>
      </trkpt>
      <trkpt lat="46.73156" lon="5.55175">
        <ele>288</ele>
        <time>2019-04-01T19:59:44Z</time>
      </trkpt>
      <trkpt lat="46.73149" lon="5.55194">
        <ele>289</ele>
        <time>2019-04-01T20:00:44Z</time>
      </trkpt>
      <trkpt lat="46.73143" lon="5.55219">
        <ele>290</ele>
        <time>2019-04-01T20:01:44Z</time>
      </trkpt>
      <trkpt lat="46.73143" lon="5.55231">
        <ele>291</ele>
        <time>2019-04-01T20:02:44Z</time>
      </trkpt>
      <trkpt lat="46.73143" lon="5.55269">
        <ele>293</ele>
        <time>2019-04-01T20:03:44Z</time>
      </trkpt>
      <trkpt lat="46.7314" lon="5.55282">
        <ele>294</ele>
        <time>2019-04-01T20:04:44Z</time>
      </trkpt>
      <trkpt lat="46.73138" lon="5.5529">
        <ele>295</ele>
        <time>2019-04-01T20:05:44Z</time>
      </trkpt>
      <trkpt lat="46.7313" lon="5.553">
        <ele>295</ele>
        <time>2019-04-01T20:06:44Z</time>
      </trkpt>
      <trkpt lat="46.73123" lon="5.55304">
        <ele>296</ele>
        <time>2019-04-01T20:07:44Z</time>
      </trkpt>
      <trkpt lat="46.73092" lon="5.5531">
        <ele>296</ele>
        <time>2019-04-01T20:08:44Z</time>
      </trkpt>
      <trkpt lat="46.7308" lon="5.55311">
        <ele>296</ele>
        <time>2019-04-01T20:09:44Z</time>
      </trkpt>
      <trkpt lat="46.73045" lon="5.55318">
        <ele>296</ele>
        <time>2019-04-01T20:10:44Z</time>
      </trkpt>
      <trkpt lat="46.73033" lon="5.55324">
        <ele>296</ele>
        <time>2019-04-01T20:11:44Z</time>
      </trkpt>
      <trkpt lat="46.73024" lon="5.5534">
        <ele>297</ele>
        <time>2019-04-01T20:12:44Z</time>
      </trkpt>
      <trkpt lat="46.7302" lon="5.55363">
        <ele>297</ele>
        <time>2019-04-01T20:13:44Z</time>
      </trkpt>
      <trkpt lat="46.73017" lon="5.55382">
        <ele>297</ele>
        <time>2019-04-01T20:14:44Z</time>
      </trkpt>
      <trkpt lat="46.73004" lon="5.55486">
        <ele>297</ele>
        <time>2019-04-01T20:15:44Z</time>
      </trkpt>
      <trkpt lat="46.73001" lon="5.55508">
        <ele>297</ele>
        <time>2019-04-01T20:16:44Z</time>
      </trkpt>
      <trkpt lat="46.7295" lon="5.55506">
        <ele>297</ele>
        <time>2019-04-01T20:17:44Z</time>
      </trkpt>
      <trkpt lat="46.7293" lon="5.55504">
        <ele>298</ele>
        <time>2019-04-01T20:18:44Z</time>
      </trkpt>
      <trkpt lat="46.72928" lon="5.55551">
        <ele>297</ele>
        <time>2019-04-01T20:19:44Z</time>
      </trkpt>
      <trkpt lat="46.72923" lon="5.55558">
        <ele>297</ele>
        <time>2019-04-01T20:20:44Z</time>
      </trkpt>
      <trkpt lat="46.72919" lon="5.55608">
        <ele>296</ele>
        <time>2019-04-01T20:21:44Z</time>
      </trkpt>
      <trkpt lat="46.72916" lon="5.55643">
        <ele>294</ele>
        <time>2019-04-01T20:22:44Z</time>
      </trkpt>
      <trkpt lat="46.72913" lon="5.55662">
        <ele>293</ele>
        <time>2019-04-01T20:23:44Z</time>
      </trkpt>
      <trkpt lat="46.72907" lon="5.55672">
        <ele>293</ele>
        <time>2019-04-01T20:24:44Z</time>
      </trkpt>
      <trkpt lat="46.72907" lon="5.5569">
        <ele>292</ele>
        <time>2019-04-01T20:25:44Z</time>
      </trkpt>
      <trkpt lat="46.72904" lon="5.55734">
        <ele>291</ele>
        <time>2019-04-01T20:26:44Z</time>
      </trkpt>
      <trkpt lat="46.72901" lon="5.5577">
        <ele>289</ele>
        <time>2019-04-01T20:27:44Z</time>
      </trkpt>
      <trkpt lat="46.72898" lon="5.55795">
        <ele>287</ele>
        <time>2019-04-01T20:28:44Z</time>
      </trkpt>
      <trkpt lat="46.72896" lon="5.55807">
        <ele>287</ele>
        <time>2019-04-01T20:29:44Z</time>
      </trkpt>
      <trkpt lat="46.72894" lon="5.55814">
        <ele>286</ele>
        <time>2019-04-01T20:30:44Z</time>
      </trkpt>
      <trkpt lat="46.72888" lon="5.55855">
        <ele>284</ele>
        <time>2019-04-01T20:31:44Z</time>
      </trkpt>
      <trkpt lat="46.72886" lon="5.55862">
        <ele>284</ele>
        <time>2019-04-01T20:32:44Z</time>
      </trkpt>
      <trkpt lat="46.72871" lon="5.55883">
        <ele>283</ele>
        <time>2019-04-01T20:33:44Z</time>
      </trkpt>
      <trkpt lat="46.72853" lon="5.559">
        <ele>283</ele>
        <time>2019-04-01T20:34:44Z</time>
      </trkpt>
      <trkpt lat="46.72832" lon="5.55914">
        <ele>283</ele>
        <time>2019-04-01T20:35:44Z</time>
      </trkpt>
      <trkpt lat="46.72811" lon="5.55926">
        <ele>283</ele>
        <time>2019-04-01T20:36:44Z</time>
      </trkpt>
      <trkpt lat="46.72803" lon="5.55931">
        <ele>283</ele>
        <time>2019-04-01T20:37:44Z</time>
      </trkpt>
      <trkpt lat="46.72794" lon="5.5594">
        <ele>283</ele>
        <time>2019-04-01T20:38:44Z</time>
      </trkpt>
      <trkpt lat="46.72787" lon="5.55947">
        <ele>283</ele>
        <time>2019-04-01T20:39:44Z</time>
      </trkpt>
      <trkpt lat="46.72783" lon="5.55952">
        <ele>283</ele>
        <time>2019-04-01T20:40:44Z</time>
      </trkpt>
      <trkpt lat="46.72779" lon="5.55959">
        <ele>283</ele>
        <time>2019-04-01T20:41:44Z</time>
      </trkpt>
      <trkpt lat="46.72775" lon="5.55968">
        <ele>283</ele>
        <time>2019-04-01T20:42:44Z</time>
      </trkpt>
      <trkpt lat="46.72765" lon="5.56016">
        <ele>284</ele>
        <time>2019-04-01T20:43:44Z</time>
      </trkpt>
      <trkpt lat="46.72759" lon="5.56045">
        <ele>286</ele>
        <time>2019-04-01T20:44:44Z</time>
      </trkpt>
      <trkpt lat="46.72742" lon="5.56118">
        <ele>292</ele>
        <time>2019-04-01T20:45:44Z</time>
      </trkpt>
      <trkpt lat="46.72738" lon="5.56135">
        <ele>293</ele>
        <time>2019-04-01T20:46:44Z</time>
      </trkpt>
      <trkpt lat="46.72729" lon="5.56191">
        <ele>296</ele>
        <time>2019-04-01T20:47:44Z</time>
      </trkpt>
      <trkpt lat="46.72722" lon="5.56252">
        <ele>299</ele>
        <time>2019-04-01T20:48:44Z</time>
      </trkpt>
      <trkpt lat="46.7272" lon="5.56269">
        <ele>300</ele>
        <time>2019-04-01T20:49:44Z</time>
      </trkpt>
      <trkpt lat="46.7271" lon="5.56322">
        <ele>302</ele>
        <time>2019-04-01T20:50:44Z</time>
      </trkpt>
      <trkpt lat="46.72708" lon="5.56339">
        <ele>303</ele>
        <time>2019-04-01T20:51:44Z</time>
      </trkpt>
      <trkpt lat="46.72706" lon="5.56365">
        <ele>304</ele>
        <time>2019-04-01T20:52:44Z</time>
      </trkpt>
      <trkpt lat="46.72705" lon="5.56398">
        <ele>306</ele>
        <time>2019-04-01T20:53:44Z</time>
      </trkpt>
      <trkpt lat="46.72706" lon="5.56433">
        <ele>306</ele>
        <time>2019-04-01T20:54:44Z</time>
      </trkpt>
      <trkpt lat="46.72711" lon="5.56504">
        <ele>305</ele>
        <time>2019-04-01T20:55:44Z</time>
      </trkpt>
      <trkpt lat="46.72713" lon="5.56547">
        <ele>304</ele>
        <time>2019-04-01T20:56:44Z</time>
      </trkpt>
      <trkpt lat="46.72714" lon="5.56583">
        <ele>303</ele>
        <time>2019-04-01T20:57:44Z</time>
      </trkpt>
      <trkpt lat="46.72712" lon="5.5662">
        <ele>303</ele>
        <time>2019-04-01T20:58:44Z</time>
      </trkpt>
      <trkpt lat="46.72711" lon="5.56642">
        <ele>303</ele>
        <time>2019-04-01T20:59:44Z</time>
      </trkpt>
      <trkpt lat="46.72707" lon="5.56676">
        <ele>303</ele>
        <time>2019-04-01T21:00:44Z</time>
      </trkpt>
      <trkpt lat="46.72701" lon="5.56706">
        <ele>304</ele>
        <time>2019-04-01T21:01:44Z</time>
      </trkpt>
      <trkpt lat="46.72684" lon="5.56762">
        <ele>305</ele>
        <time>2019-04-01T21:02:44Z</time>
      </trkpt>
      <trkpt lat="46.72674" lon="5.56788">
        <ele>303</ele>
        <time>2019-04-01T21:03:44Z</time>
      </trkpt>
      <trkpt lat="46.72666" lon="5.56804">
        <ele>302</ele>
        <time>2019-04-01T21:04:44Z</time>
      </trkpt>
      <trkpt lat="46.72648" lon="5.56827">
        <ele>302</ele>
        <time>2019-04-01T21:05:44Z</time>
      </trkpt>
      <trkpt lat="46.72642" lon="5.56835">
        <ele>302</ele>
        <time>2019-04-01T21:06:44Z</time>
      </trkpt>
      <trkpt lat="46.72631" lon="5.56848">
        <ele>302</ele>
        <time>2019-04-01T21:07:44Z</time>
      </trkpt>
      <trkpt lat="46.72621" lon="5.56864">
        <ele>302</ele>
        <time>2019-04-01T21:08:44Z</time>
      </trkpt>
      <trkpt lat="46.72589" lon="5.56928">
        <ele>303</ele>
        <time>2019-04-01T21:09:44Z</time>
      </trkpt>
      <trkpt lat="46.72577" lon="5.56947">
        <ele>304</ele>
        <time>2019-04-01T21:10:44Z</time>
      </trkpt>
      <trkpt lat="46.72536" lon="5.57005">
        <ele>307</ele>
        <time>2019-04-01T21:11:44Z</time>
      </trkpt>
      <trkpt lat="46.72522" lon="5.57024">
        <ele>308</ele>
        <time>2019-04-01T21:12:44Z</time>
      </trkpt>
      <trkpt lat="46.72511" lon="5.57041">
        <ele>309</ele>
        <time>2019-04-01T21:13:44Z</time>
      </trkpt>
      <trkpt lat="46.72503" lon="5.57056">
        <ele>310</ele>
        <time>2019-04-01T21:14:44Z</time>
      </trkpt>
      <trkpt lat="46.72467" lon="5.57135">
        <ele>311</ele>
        <time>2019-04-01T21:15:44Z</time>
      </trkpt>
      <trkpt lat="46.72454" lon="5.57168">
        <ele>312</ele>
        <time>2019-04-01T21:16:44Z</time>
      </trkpt>
      <trkpt lat="46.72443" lon="5.57208">
        <ele>313</ele>
        <time>2019-04-01T21:17:44Z</time>
      </trkpt>
      <trkpt lat="46.72435" lon="5.57242">
        <ele>315</ele>
        <time>2019-04-01T21:18:44Z</time>
      </trkpt>
      <trkpt lat="46.72426" lon="5.57273">
        <ele>316</ele>
        <time>2019-04-01T21:19:44Z</time>
      </trkpt>
      <trkpt lat="46.7242" lon="5.57289">
        <ele>316</ele>
        <time>2019-04-01T21:20:44Z</time>
      </trkpt>
      <trkpt lat="46.72417" lon="5.57295">
        <ele>316</ele>
        <time>2019-04-01T21:21:44Z</time>
      </trkpt>
      <trkpt lat="46.72411" lon="5.57301">
        <ele>316</ele>
        <time>2019-04-01T21:22:44Z</time>
      </trkpt>
      <trkpt lat="46.724" lon="5.57312">
        <ele>317</ele>
        <time>2019-04-01T21:23:44Z</time>
      </trkpt>
      <trkpt lat="46.72384" lon="5.57324">
        <ele>317</ele>
        <time>2019-04-01T21:24:44Z</time>
      </trkpt>
      <trkpt lat="46.7237" lon="5.57333">
        <ele>318</ele>
        <time>2019-04-01T21:25:44Z</time>
      </trkpt>
      <trkpt lat="46.72359" lon="5.5734">
        <ele>319</ele>
        <time>2019-04-01T21:26:44Z</time>
      </trkpt>
      <trkpt lat="46.72347" lon="5.57337">
        <ele>319</ele>
        <time>2019-04-01T21:27:44Z</time>
      </trkpt>
      <trkpt lat="46.72331" lon="5.57333">
        <ele>319</ele>
        <time>2019-04-01T21:28:44Z</time>
      </trkpt>
      <trkpt lat="46.72314" lon="5.57326">
        <ele>319</ele>
        <time>2019-04-01T21:29:44Z</time>
      </trkpt>
      <trkpt lat="46.72306" lon="5.57324">
        <ele>319</ele>
        <time>2019-04-01T21:30:44Z</time>
      </trkpt>
      <trkpt lat="46.72298" lon="5.57324">
        <ele>319</ele>
        <time>2019-04-01T21:31:44Z</time>
      </trkpt>
      <trkpt lat="46.72289" lon="5.57327">
        <ele>320</ele>
        <time>2019-04-01T21:32:44Z</time>
      </trkpt>
      <trkpt lat="46.72283" lon="5.5733">
        <ele>320</ele>
        <time>2019-04-01T21:33:44Z</time>
      </trkpt>
      <trkpt lat="46.72277" lon="5.57332">
        <ele>320</ele>
        <time>2019-04-01T21:34:44Z</time>
      </trkpt>
      <trkpt lat="46.72249" lon="5.57345">
        <ele>321</ele>
        <time>2019-04-01T21:35:44Z</time>
      </trkpt>
      <trkpt lat="46.72231" lon="5.57354">
        <ele>322</ele>
        <time>2019-04-01T21:36:44Z</time>
      </trkpt>
      <trkpt lat="46.72221" lon="5.57358">
        <ele>322</ele>
        <time>2019-04-01T21:37:44Z</time>
      </trkpt>
      <trkpt lat="46.72183" lon="5.57373">
        <ele>322</ele>
        <time>2019-04-01T21:38:44Z</time>
      </trkpt>
      <trkpt lat="46.72175" lon="5.57375">
        <ele>323</ele>
        <time>2019-04-01T21:39:44Z</time>
      </trkpt>
      <trkpt lat="46.72169" lon="5.57375">
        <ele>323</ele>
        <time>2019-04-01T21:40:44Z</time>
      </trkpt>
      <trkpt lat="46.72162" lon="5.57374">
        <ele>323</ele>
        <time>2019-04-01T21:41:44Z</time>
      </trkpt>
      <trkpt lat="46.72137" lon="5.57358">
        <ele>324</ele>
        <time>2019-04-01T21:42:44Z</time>
      </trkpt>
      <trkpt lat="46.72131" lon="5.57357">
        <ele>325</ele>
        <time>2019-04-01T21:43:44Z</time>
      </trkpt>
      <trkpt lat="46.72123" lon="5.57358">
        <ele>325</ele>
        <time>2019-04-01T21:44:44Z</time>
      </trkpt>
      <trkpt lat="46.72118" lon="5.5736">
        <ele>325</ele>
        <time>2019-04-01T21:45:44Z</time>
      </trkpt>
      <trkpt lat="46.72108" lon="5.57362">
        <ele>326</ele>
        <time>2019-04-01T21:46:44Z</time>
      </trkpt>
      <trkpt lat="46.72098" lon="5.57369">
        <ele>327</ele>
        <time>2019-04-01T21:47:44Z</time>
      </trkpt>
      <trkpt lat="46.72088" lon="5.5738">
        <ele>328</ele>
        <time>2019-04-01T21:48:44Z</time>
      </trkpt>
      <trkpt lat="46.72077" lon="5.57392">
        <ele>329</ele>
        <time>2019-04-01T21:49:44Z</time>
      </trkpt>
      <trkpt lat="46.72072" lon="5.57401">
        <ele>330</ele>
        <time>2019-04-01T21:50:44Z</time>
      </trkpt>
      <trkpt lat="46.72068" lon="5.57418">
        <ele>331</ele>
        <time>2019-04-01T21:51:44Z</time>
      </trkpt>
      <trkpt lat="46.72069" lon="5.57431">
        <ele>332</ele>
        <time>2019-04-01T21:52:44Z</time>
      </trkpt>
      <trkpt lat="46.72078" lon="5.57445">
        <ele>331</ele>
        <time>2019-04-01T21:53:44Z</time>
      </trkpt>
      <trkpt lat="46.721" lon="5.57474">
        <ele>331</ele>
        <time>2019-04-01T21:54:44Z</time>
      </trkpt>
      <trkpt lat="46.72112" lon="5.57497">
        <ele>330</ele>
        <time>2019-04-01T21:55:44Z</time>
      </trkpt>
      <trkpt lat="46.72128" lon="5.5752">
        <ele>330</ele>
        <time>2019-04-01T21:56:44Z</time>
      </trkpt>
      <trkpt lat="46.72143" lon="5.57538">
        <ele>329</ele>
        <time>2019-04-01T21:57:44Z</time>
      </trkpt>
      <trkpt lat="46.72152" lon="5.57552">
        <ele>329</ele>
        <time>2019-04-01T21:58:44Z</time>
      </trkpt>
      <trkpt lat="46.72157" lon="5.57565">
        <ele>329</ele>
        <time>2019-04-01T21:59:44Z</time>
      </trkpt>
      <trkpt lat="46.72158" lon="5.57583">
        <ele>330</ele>
        <time>2019-04-01T22:00:44Z</time>
      </trkpt>
      <trkpt lat="46.72156" lon="5.57603">
        <ele>332</ele>
        <time>2019-04-01T22:01:44Z</time>
      </trkpt>
      <trkpt lat="46.72151" lon="5.5763">
        <ele>334</ele>
        <time>2019-04-01T22:02:44Z</time>
      </trkpt>
      <trkpt lat="46.72146" lon="5.57644">
        <ele>335</ele>
        <time>2019-04-01T22:03:44Z</time>
      </trkpt>
      <trkpt lat="46.7214" lon="5.5766">
        <ele>336</ele>
        <time>2019-04-01T22:04:44Z</time>
      </trkpt>
      <trkpt lat="46.72132" lon="5.57666">
        <ele>337</ele>
        <time>2019-04-01T22:05:44Z</time>
      </trkpt>
      <trkpt lat="46.72118" lon="5.57669">
        <ele>338</ele>
        <time>2019-04-01T22:06:44Z</time>
      </trkpt>
      <trkpt lat="46.72097" lon="5.57671">
        <ele>339</ele>
        <time>2019-04-01T22:07:44Z</time>
      </trkpt>
      <trkpt lat="46.72093" lon="5.57674">
        <ele>340</ele>
        <time>2019-04-01T22:08:44Z</time>
      </trkpt>
      <trkpt lat="46.72088" lon="5.57679">
        <ele>341</ele>
        <time>2019-04-01T22:09:44Z</time>
      </trkpt>
      <trkpt lat="46.72086" lon="5.57688">
        <ele>341</ele>
        <time>2019-04-01T22:10:44Z</time>
      </trkpt>
      <trkpt lat="46.72086" lon="5.57714">
        <ele>343</ele>
        <time>2019-04-01T22:11:44Z</time>
      </trkpt>
      <trkpt lat="46.72084" lon="5.57729">
        <ele>344</ele>
        <time>2019-04-01T22:12:44Z</time>
      </trkpt>
      <trkpt lat="46.7207" lon="5.57771">
        <ele>346</ele>
        <time>2019-04-01T22:13:44Z</time>
      </trkpt>
      <trkpt lat="46.72061" lon="5.57802">
        <ele>346</ele>
        <time>2019-04-01T22:14:44Z</time>
      </trkpt>
      <trkpt lat="46.72058" lon="5.57816">
        <ele>347</ele>
        <time>2019-04-01T22:15:44Z</time>
      </trkpt>
      <trkpt lat="46.72058" lon="5.57838">
        <ele>347</ele>
        <time>2019-04-01T22:16:44Z</time>
      </trkpt>
      <trkpt lat="46.72059" lon="5.57856">
        <ele>347</ele>
        <time>2019-04-01T22:17:44Z</time>
      </trkpt>
      <trkpt lat="46.72022" lon="5.57882">
        <ele>346</ele>
        <time>2019-04-01T22:18:44Z</time>
      </trkpt>
      <trkpt lat="46.72011" lon="5.57893">
        <ele>346</ele>
        <time>2019-04-01T22:19:44Z</time>
      </trkpt>
      <trkpt lat="46.7201" lon="5.5789">
        <ele>346</ele>
        <time>2019-04-01T22:20:44Z</time>
      </trkpt>
      <trkpt lat="46.72008" lon="5.57887">
        <ele>346</ele>
        <time>2019-04-01T22:21:44Z</time>
      </trkpt>
      <trkpt lat="46.72002" lon="5.57885">
        <ele>346</ele>
        <time>2019-04-01T22:22:44Z</time>
      </trkpt>
      <trkpt lat="46.71999" lon="5.57887">
        <ele>346</ele>
        <time>2019-04-01T22:23:44Z</time>
      </trkpt>
      <trkpt lat="46.71997" lon="5.5789">
        <ele>347</ele>
        <time>2019-04-01T22:24:44Z</time>
      </trkpt>
      <trkpt lat="46.71996" lon="5.57892">
        <ele>347</ele>
        <time>2019-04-01T22:25:44Z</time>
      </trkpt>
      <trkpt lat="46.71995" lon="5.57901">
        <ele>346</ele>
        <time>2019-04-01T22:26:44Z</time>
      </trkpt>
      <trkpt lat="46.71996" lon="5.57905">
        <ele>346</ele>
        <time>2019-04-01T22:27:44Z</time>
      </trkpt>
      <trkpt lat="46.71986" lon="5.5792">
        <ele>346</ele>
        <time>2019-04-01T22:28:44Z</time>
      </trkpt>
      <trkpt lat="46.71975" lon="5.5793">
        <ele>346</ele>
        <time>2019-04-01T22:29:44Z</time>
      </trkpt>
      <trkpt lat="46.71965" lon="5.57933">
        <ele>347</ele>
        <time>2019-04-01T22:30:44Z</time>
      </trkpt>
      <trkpt lat="46.71949" lon="5.5793">
        <ele>348</ele>
        <time>2019-04-01T22:31:44Z</time>
      </trkpt>
      <trkpt lat="46.71939" lon="5.57924">
        <ele>348</ele>
        <time>2019-04-01T22:32:44Z</time>
      </trkpt>
      <trkpt lat="46.71929" lon="5.57913">
        <ele>350</ele>
        <time>2019-04-01T22:33:44Z</time>
      </trkpt>
      <trkpt lat="46.71917" lon="5.57902">
        <ele>351</ele>
        <time>2019-04-01T22:34:44Z</time>
      </trkpt>
      <trkpt lat="46.71911" lon="5.57895">
        <ele>352</ele>
        <time>2019-04-01T22:35:44Z</time>
      </trkpt>
      <trkpt lat="46.71885" lon="5.57865">
        <ele>354</ele>
        <time>2019-04-01T22:36:44Z</time>
      </trkpt>
      <trkpt lat="46.71866" lon="5.57847">
        <ele>356</ele>
        <time>2019-04-01T22:37:44Z</time>
      </trkpt>
      <trkpt lat="46.71852" lon="5.57831">
        <ele>357</ele>
        <time>2019-04-01T22:38:44Z</time>
      </trkpt>
      <trkpt lat="46.71849" lon="5.57822">
        <ele>357</ele>
        <time>2019-04-01T22:39:44Z</time>
      </trkpt>
      <trkpt lat="46.71837" lon="5.57826">
        <ele>357</ele>
        <time>2019-04-01T22:40:44Z</time>
      </trkpt>
      <trkpt lat="46.71814" lon="5.5782">
        <ele>357</ele>
        <time>2019-04-01T22:41:44Z</time>
      </trkpt>
      <trkpt lat="46.71788" lon="5.57812">
        <ele>358</ele>
        <time>2019-04-01T22:42:44Z</time>
      </trkpt>
      <trkpt lat="46.71774" lon="5.57806">
        <ele>358</ele>
        <time>2019-04-01T22:43:44Z</time>
      </trkpt>
      <trkpt lat="46.71748" lon="5.57787">
        <ele>358</ele>
        <time>2019-04-01T22:44:44Z</time>
      </trkpt>
      <trkpt lat="46.71739" lon="5.57781">
        <ele>358</ele>
        <time>2019-04-01T22:45:44Z</time>
      </trkpt>
      <trkpt lat="46.71636" lon="5.57753">
        <ele>360</ele>
        <time>2019-04-01T22:46:44Z</time>
      </trkpt>
      <trkpt lat="46.71616" lon="5.57749">
        <ele>361</ele>
        <time>2019-04-01T22:47:44Z</time>
      </trkpt>
      <trkpt lat="46.71598" lon="5.57743">
        <ele>361</ele>
        <time>2019-04-01T22:48:44Z</time>
      </trkpt>
      <trkpt lat="46.71563" lon="5.57724">
        <ele>364</ele>
        <time>2019-04-01T22:49:44Z</time>
      </trkpt>
      <trkpt lat="46.71551" lon="5.57721">
        <ele>365</ele>
        <time>2019-04-01T22:50:44Z</time>
      </trkpt>
      <trkpt lat="46.71545" lon="5.5772">
        <ele>365</ele>
        <time>2019-04-01T22:51:44Z</time>
      </trkpt>
      <trkpt lat="46.71538" lon="5.57721">
        <ele>366</ele>
        <time>2019-04-01T22:52:44Z</time>
      </trkpt>
      <trkpt lat="46.71529" lon="5.57724">
        <ele>367</ele>
        <time>2019-04-01T22:53:44Z</time>
      </trkpt>
      <trkpt lat="46.71516" lon="5.57731">
        <ele>369</ele>
        <time>2019-04-01T22:54:44Z</time>
      </trkpt>
      <trkpt lat="46.71507" lon="5.57747">
        <ele>369</ele>
        <time>2019-04-01T22:55:44Z</time>
      </trkpt>
      <trkpt lat="46.71458" lon="5.57801">
        <ele>365</ele>
        <time>2019-04-01T22:56:44Z</time>
      </trkpt>
      <trkpt lat="46.71405" lon="5.5782">
        <ele>366</ele>
        <time>2019-04-01T22:57:44Z</time>
      </trkpt>
      <trkpt lat="46.71385" lon="5.57825">
        <ele>365</ele>
        <time>2019-04-01T22:58:44Z</time>
      </trkpt>
      <trkpt lat="46.71341" lon="5.57821">
        <ele>367</ele>
        <time>2019-04-01T22:59:44Z</time>
      </trkpt>
      <trkpt lat="46.71279" lon="5.57788">
        <ele>373</ele>
        <time>2019-04-01T23:00:44Z</time>
      </trkpt>
      <trkpt lat="46.71171" lon="5.57727">
        <ele>376</ele>
        <time>2019-04-01T23:01:44Z</time>
      </trkpt>
      <trkpt lat="46.71131" lon="5.57717">
        <ele>376</ele>
        <time>2019-04-01T23:02:44Z</time>
      </trkpt>
      <trkpt lat="46.71103" lon="5.57701">
        <ele>375</ele>
        <time>2019-04-01T23:03:44Z</time>
      </trkpt>
      <trkpt lat="46.71081" lon="5.57678">
        <ele>374</ele>
        <time>2019-04-01T23:04:44Z</time>
      </trkpt>
      <trkpt lat="46.71065" lon="5.57663">
        <ele>374</ele>
        <time>2019-04-01T23:05:44Z</time>
      </trkpt>
      <trkpt lat="46.71042" lon="5.57645">
        <ele>374</ele>
        <time>2019-04-01T23:06:44Z</time>
      </trkpt>
      <trkpt lat="46.70999" lon="5.57605">
        <ele>371</ele>
        <time>2019-04-01T23:07:44Z</time>
      </trkpt>
      <trkpt lat="46.70973" lon="5.57583">
        <ele>372</ele>
        <time>2019-04-01T23:08:44Z</time>
      </trkpt>
      <trkpt lat="46.7093" lon="5.57555">
        <ele>373</ele>
        <time>2019-04-01T23:09:44Z</time>
      </trkpt>
      <trkpt lat="46.70895" lon="5.57536">
        <ele>372</ele>
        <time>2019-04-01T23:10:44Z</time>
      </trkpt>
      <trkpt lat="46.70881" lon="5.57529">
        <ele>372</ele>
        <time>2019-04-01T23:11:44Z</time>
      </trkpt>
      <trkpt lat="46.70875" lon="5.57529">
        <ele>372</ele>
        <time>2019-04-01T23:12:44Z</time>
      </trkpt>
      <trkpt lat="46.70872" lon="5.57539">
        <ele>373</ele>
        <time>2019-04-01T23:13:44Z</time>
      </trkpt>
      <trkpt lat="46.70868" lon="5.57547">
        <ele>374</ele>
        <time>2019-04-01T23:14:44Z</time>
      </trkpt>
      <trkpt lat="46.70864" lon="5.5755">
        <ele>375</ele>
        <time>2019-04-01T23:15:44Z</time>
      </trkpt>
      <trkpt lat="46.70848" lon="5.57554">
        <ele>376</ele>
        <time>2019-04-01T23:16:44Z</time>
      </trkpt>
      <trkpt lat="46.70839" lon="5.57553">
        <ele>376</ele>
        <time>2019-04-01T23:17:44Z</time>
      </trkpt>
      <trkpt lat="46.70835" lon="5.57554">
        <ele>376</ele>
        <time>2019-04-01T23:18:44Z</time>
      </trkpt>
      <trkpt lat="46.7083" lon="5.57557">
        <ele>376</ele>
        <time>2019-04-01T23:19:44Z</time>
      </trkpt>
      <trkpt lat="46.70827" lon="5.57564">
        <ele>376</ele>
        <time>2019-04-01T23:20:44Z</time>
      </trkpt>
      <trkpt lat="46.70826" lon="5.57571">
        <ele>377</ele>
        <time>2019-04-01T23:21:44Z</time>
      </trkpt>
      <trkpt lat="46.70826" lon="5.57578">
        <ele>377</ele>
        <time>2019-04-01T23:22:44Z</time>
      </trkpt>
      <trkpt lat="46.70828" lon="5.57586">
        <ele>378</ele>
        <time>2019-04-01T23:23:44Z</time>
      </trkpt>
      <trkpt lat="46.70828" lon="5.57594">
        <ele>378</ele>
        <time>2019-04-01T23:24:44Z</time>
      </trkpt>
      <trkpt lat="46.70827" lon="5.57601">
        <ele>377</ele>
        <time>2019-04-01T23:25:44Z</time>
      </trkpt>
      <trkpt lat="46.70823" lon="5.5761">
        <ele>376</ele>
        <time>2019-04-01T23:26:44Z</time>
      </trkpt>
      <trkpt lat="46.70822" lon="5.57616">
        <ele>376</ele>
        <time>2019-04-01T23:27:44Z</time>
      </trkpt>
      <trkpt lat="46.70823" lon="5.57622">
        <ele>376</ele>
        <time>2019-04-01T23:28:44Z</time>
      </trkpt>
      <trkpt lat="46.70826" lon="5.57626">
        <ele>376</ele>
        <time>2019-04-01T23:29:44Z</time>
      </trkpt>
      <trkpt lat="46.70813" lon="5.57621">
        <ele>374</ele>
        <time>2019-04-01T23:30:44Z</time>
      </trkpt>
      <trkpt lat="46.70803" lon="5.57615">
        <ele>373</ele>
        <time>2019-04-01T23:31:44Z</time>
      </trkpt>
      <trkpt lat="46.70791" lon="5.57607">
        <ele>372</ele>
        <time>2019-04-01T23:32:44Z</time>
      </trkpt>
      <trkpt lat="46.70776" lon="5.57595">
        <ele>370</ele>
        <time>2019-04-01T23:33:44Z</time>
      </trkpt>
      <trkpt lat="46.70767" lon="5.57588">
        <ele>370</ele>
        <time>2019-04-01T23:34:44Z</time>
      </trkpt>
      <trkpt lat="46.7075" lon="5.5758">
        <ele>368</ele>
        <time>2019-04-01T23:35:44Z</time>
      </trkpt>
      <trkpt lat="46.70738" lon="5.57575">
        <ele>366</ele>
        <time>2019-04-01T23:36:44Z</time>
      </trkpt>
      <trkpt lat="46.7072" lon="5.5757">
        <ele>363</ele>
        <time>2019-04-01T23:37:44Z</time>
      </trkpt>
      <trkpt lat="46.707" lon="5.57566">
        <ele>360</ele>
        <time>2019-04-01T23:38:44Z</time>
      </trkpt>
      <trkpt lat="46.70681" lon="5.57561">
        <ele>357</ele>
        <time>2019-04-01T23:39:44Z</time>
      </trkpt>
      <trkpt lat="46.70664" lon="5.57558">
        <ele>354</ele>
        <time>2019-04-01T23:40:44Z</time>
      </trkpt>
      <trkpt lat="46.70607" lon="5.57545">
        <ele>350</ele>
        <time>2019-04-01T23:41:44Z</time>
      </trkpt>
      <trkpt lat="46.70589" lon="5.57541">
        <ele>348</ele>
        <time>2019-04-01T23:42:44Z</time>
      </trkpt>
      <trkpt lat="46.70582" lon="5.57539">
        <ele>348</ele>
        <time>2019-04-01T23:43:44Z</time>
      </trkpt>
      <trkpt lat="46.70577" lon="5.5753">
        <ele>348</ele>
        <time>2019-04-01T23:44:44Z</time>
      </trkpt>
      <trkpt lat="46.70573" lon="5.57518">
        <ele>348</ele>
        <time>2019-04-01T23:45:44Z</time>
      </trkpt>
      <trkpt lat="46.70554" lon="5.57525">
        <ele>349</ele>
        <time>2019-04-01T23:46:44Z</time>
      </trkpt>
      <trkpt lat="46.70543" lon="5.57535">
        <ele>349</ele>
        <time>2019-04-01T23:47:44Z</time>
      </trkpt>
      <trkpt lat="46.70536" lon="5.57552">
        <ele>349</ele>
        <time>2019-04-01T23:48:44Z</time>
      </trkpt>
      <trkpt lat="46.7053" lon="5.57575">
        <ele>350</ele>
        <time>2019-04-01T23:49:44Z</time>
      </trkpt>
      <trkpt lat="46.70513" lon="5.57626">
        <ele>350</ele>
        <time>2019-04-01T23:50:44Z</time>
      </trkpt>
      <trkpt lat="46.70507" lon="5.57642">
        <ele>350</ele>
        <time>2019-04-01T23:51:44Z</time>
      </trkpt>
      <trkpt lat="46.70498" lon="5.57637">
        <ele>350</ele>
        <time>2019-04-01T23:52:44Z</time>
      </trkpt>
      <trkpt lat="46.70427" lon="5.57578">
        <ele>352</ele>
        <time>2019-04-01T23:53:44Z</time>
      </trkpt>
      <trkpt lat="46.70394" lon="5.57551">
        <ele>354</ele>
        <time>2019-04-01T23:54:44Z</time>
      </trkpt>
      <trkpt lat="46.70347" lon="5.57514">
        <ele>355</ele>
        <time>2019-04-01T23:55:44Z</time>
      </trkpt>
      <trkpt lat="46.70313" lon="5.57487">
        <ele>355</ele>
        <time>2019-04-01T23:56:44Z</time>
      </trkpt>
      <trkpt lat="46.70267" lon="5.57447">
        <ele>357</ele>
        <time>2019-04-01T23:57:44Z</time>
      </trkpt>
      <trkpt lat="46.70249" lon="5.57429">
        <ele>358</ele>
        <time>2019-04-01T23:58:44Z</time>
      </trkpt>
      <trkpt lat="46.70213" lon="5.57457">
        <ele>358</ele>
        <time>2019-04-01T23:59:44Z</time>
      </trkpt>
      <trkpt lat="46.70205" lon="5.57461">
        <ele>358</ele>
        <time>2019-04-02T00:00:44Z</time>
      </trkpt>
      <trkpt lat="46.70183" lon="5.57454">
        <ele>358</ele>
        <time>2019-04-02T00:01:44Z</time>
      </trkpt>
      <trkpt lat="46.70157" lon="5.57445">
        <ele>357</ele>
        <time>2019-04-02T00:02:44Z</time>
      </trkpt>
      <trkpt lat="46.70124" lon="5.5744">
        <ele>357</ele>
        <time>2019-04-02T00:03:44Z</time>
      </trkpt>
      <trkpt lat="46.70053" lon="5.57436">
        <ele>358</ele>
        <time>2019-04-02T00:04:44Z</time>
      </trkpt>
      <trkpt lat="46.70021" lon="5.5743">
        <ele>358</ele>
        <time>2019-04-02T00:05:44Z</time>
      </trkpt>
      <trkpt lat="46.69996" lon="5.57429">
        <ele>359</ele>
        <time>2019-04-02T00:06:44Z</time>
      </trkpt>
      <trkpt lat="46.69974" lon="5.57429">
        <ele>358</ele>
        <time>2019-04-02T00:07:44Z</time>
      </trkpt>
      <trkpt lat="46.69955" lon="5.57433">
        <ele>358</ele>
        <time>2019-04-02T00:08:44Z</time>
      </trkpt>
      <trkpt lat="46.69931" lon="5.5744">
        <ele>359</ele>
        <time>2019-04-02T00:09:44Z</time>
      </trkpt>
      <trkpt lat="46.69916" lon="5.57443">
        <ele>359</ele>
        <time>2019-04-02T00:10:44Z</time>
      </trkpt>
      <trkpt lat="46.69899" lon="5.57448">
        <ele>360</ele>
        <time>2019-04-02T00:11:44Z</time>
      </trkpt>
      <trkpt lat="46.69882" lon="5.57447">
        <ele>361</ele>
        <time>2019-04-02T00:12:44Z</time>
      </trkpt>
      <trkpt lat="46.69857" lon="5.57437">
        <ele>360</ele>
        <time>2019-04-02T00:13:44Z</time>
      </trkpt>
      <trkpt lat="46.69823" lon="5.57422">
        <ele>360</ele>
        <time>2019-04-02T00:14:44Z</time>
      </trkpt>
      <trkpt lat="46.69803" lon="5.57411">
        <ele>361</ele>
        <time>2019-04-02T00:15:44Z</time>
      </trkpt>
      <trkpt lat="46.69784" lon="5.57404">
        <ele>362</ele>
        <time>2019-04-02T00:16:44Z</time>
      </trkpt>
      <trkpt lat="46.69767" lon="5.574">
        <ele>362</ele>
        <time>2019-04-02T00:17:44Z</time>
      </trkpt>
      <trkpt lat="46.69744" lon="5.57394">
        <ele>363</ele>
        <time>2019-04-02T00:18:44Z</time>
      </trkpt>
      <trkpt lat="46.69693" lon="5.57383">
        <ele>360</ele>
        <time>2019-04-02T00:19:44Z</time>
      </trkpt>
      <trkpt lat="46.69657" lon="5.57376">
        <ele>358</ele>
        <time>2019-04-02T00:20:44Z</time>
      </trkpt>
      <trkpt lat="46.69634" lon="5.57366">
        <ele>354</ele>
        <time>2019-04-02T00:21:44Z</time>
      </trkpt>
      <trkpt lat="46.69613" lon="5.5735">
        <ele>351</ele>
        <time>2019-04-02T00:22:44Z</time>
      </trkpt>
      <trkpt lat="46.69602" lon="5.5734">
        <ele>349</ele>
        <time>2019-04-02T00:23:44Z</time>
      </trkpt>
      <trkpt lat="46.69599" lon="5.57329">
        <ele>348</ele>
        <time>2019-04-02T00:24:44Z</time>
      </trkpt>
      <trkpt lat="46.6959" lon="5.57329">
        <ele>347</ele>
        <time>2019-04-02T00:25:44Z</time>
      </trkpt>
      <trkpt lat="46.69564" lon="5.57315">
        <ele>344</ele>
        <time>2019-04-02T00:26:44Z</time>
      </trkpt>
      <trkpt lat="46.69548" lon="5.57301">
        <ele>342</ele>
        <time>2019-04-02T00:27:44Z</time>
      </trkpt>
      <trkpt lat="46.69543" lon="5.57301">
        <ele>341</ele>
        <time>2019-04-02T00:28:44Z</time>
      </trkpt>
      <trkpt lat="46.6954" lon="5.57303">
        <ele>341</ele>
        <time>2019-04-02T00:29:44Z</time>
      </trkpt>
      <trkpt lat="46.69536" lon="5.57306">
        <ele>341</ele>
        <time>2019-04-02T00:30:44Z</time>
      </trkpt>
      <trkpt lat="46.6953" lon="5.57316">
        <ele>341</ele>
        <time>2019-04-02T00:31:44Z</time>
      </trkpt>
      <trkpt lat="46.69523" lon="5.57334">
        <ele>341</ele>
        <time>2019-04-02T00:32:44Z</time>
      </trkpt>
      <trkpt lat="46.69515" lon="5.57353">
        <ele>341</ele>
        <time>2019-04-02T00:33:44Z</time>
      </trkpt>
      <trkpt lat="46.69508" lon="5.57366">
        <ele>341</ele>
        <time>2019-04-02T00:34:44Z</time>
      </trkpt>
      <trkpt lat="46.69498" lon="5.57384">
        <ele>341</ele>
        <time>2019-04-02T00:35:44Z</time>
      </trkpt>
      <trkpt lat="46.69492" lon="5.57392">
        <ele>342</ele>
        <time>2019-04-02T00:36:44Z</time>
      </trkpt>
      <trkpt lat="46.69485" lon="5.57405">
        <ele>342</ele>
        <time>2019-04-02T00:37:44Z</time>
      </trkpt>
      <trkpt lat="46.69476" lon="5.57416">
        <ele>342</ele>
        <time>2019-04-02T00:38:44Z</time>
      </trkpt>
      <trkpt lat="46.6947" lon="5.5742">
        <ele>342</ele>
        <time>2019-04-02T00:39:44Z</time>
      </trkpt>
      <trkpt lat="46.69465" lon="5.57418">
        <ele>342</ele>
        <time>2019-04-02T00:40:44Z</time>
      </trkpt>
      <trkpt lat="46.69459" lon="5.57412">
        <ele>342</ele>
        <time>2019-04-02T00:41:44Z</time>
      </trkpt>
      <trkpt lat="46.69455" lon="5.57413">
        <ele>342</ele>
        <time>2019-04-02T00:42:44Z</time>
      </trkpt>
      <trkpt lat="46.69447" lon="5.57425">
        <ele>342</ele>
        <time>2019-04-02T00:43:44Z</time>
      </trkpt>
      <trkpt lat="46.69439" lon="5.57433">
        <ele>342</ele>
        <time>2019-04-02T00:44:44Z</time>
      </trkpt>
      <trkpt lat="46.69442" lon="5.57441">
        <ele>343</ele>
        <time>2019-04-02T00:45:44Z</time>
      </trkpt>
      <trkpt lat="46.69443" lon="5.57451">
        <ele>343</ele>
        <time>2019-04-02T00:46:44Z</time>
      </trkpt>
      <trkpt lat="46.69443" lon="5.57465">
        <ele>344</ele>
        <time>2019-04-02T00:47:44Z</time>
      </trkpt>
      <trkpt lat="46.69441" lon="5.57481">
        <ele>344</ele>
        <time>2019-04-02T00:48:44Z</time>
      </trkpt>
      <trkpt lat="46.69441" lon="5.57487">
        <ele>345</ele>
        <time>2019-04-02T00:49:44Z</time>
      </trkpt>
      <trkpt lat="46.69434" lon="5.57511">
        <ele>345</ele>
        <time>2019-04-02T00:50:44Z</time>
      </trkpt>
      <trkpt lat="46.69425" lon="5.57558">
        <ele>346</ele>
        <time>2019-04-02T00:51:44Z</time>
      </trkpt>
      <trkpt lat="46.69422" lon="5.57573">
        <ele>346</ele>
        <time>2019-04-02T00:52:44Z</time>
      </trkpt>
      <trkpt lat="46.6941" lon="5.5762">
        <ele>345</ele>
        <time>2019-04-02T00:53:44Z</time>
      </trkpt>
      <trkpt lat="46.69407" lon="5.57632">
        <ele>344</ele>
        <time>2019-04-02T00:54:44Z</time>
      </trkpt>
      <trkpt lat="46.69405" lon="5.57657">
        <ele>343</ele>
        <time>2019-04-02T00:55:44Z</time>
      </trkpt>
      <trkpt lat="46.69407" lon="5.57688">
        <ele>341</ele>
        <time>2019-04-02T00:56:44Z</time>
      </trkpt>
      <trkpt lat="46.69398" lon="5.5771">
        <ele>338</ele>
        <time>2019-04-02T00:57:44Z</time>
      </trkpt>
      <trkpt lat="46.69377" lon="5.57757">
        <ele>333</ele>
        <time>2019-04-02T00:58:44Z</time>
      </trkpt>
      <trkpt lat="46.69351" lon="5.57801">
        <ele>328</ele>
        <time>2019-04-02T00:59:44Z</time>
      </trkpt>
      <trkpt lat="46.69329" lon="5.57811">
        <ele>325</ele>
        <time>2019-04-02T01:00:44Z</time>
      </trkpt>
      <trkpt lat="46.69295" lon="5.57809">
        <ele>323</ele>
        <time>2019-04-02T01:01:44Z</time>
      </trkpt>
      <trkpt lat="46.69279" lon="5.57806">
        <ele>323</ele>
        <time>2019-04-02T01:02:44Z</time>
      </trkpt>
      <trkpt lat="46.69264" lon="5.57806">
        <ele>322</ele>
        <time>2019-04-02T01:03:44Z</time>
      </trkpt>
      <trkpt lat="46.6925" lon="5.57808">
        <ele>321</ele>
        <time>2019-04-02T01:04:44Z</time>
      </trkpt>
      <trkpt lat="46.69241" lon="5.57813">
        <ele>320</ele>
        <time>2019-04-02T01:05:44Z</time>
      </trkpt>
      <trkpt lat="46.69226" lon="5.57827">
        <ele>317</ele>
        <time>2019-04-02T01:06:44Z</time>
      </trkpt>
      <trkpt lat="46.69211" lon="5.57842">
        <ele>315</ele>
        <time>2019-04-02T01:07:44Z</time>
      </trkpt>
      <trkpt lat="46.69199" lon="5.57851">
        <ele>314</ele>
        <time>2019-04-02T01:08:44Z</time>
      </trkpt>
      <trkpt lat="46.69188" lon="5.57856">
        <ele>313</ele>
        <time>2019-04-02T01:09:44Z</time>
      </trkpt>
      <trkpt lat="46.69178" lon="5.57853">
        <ele>313</ele>
        <time>2019-04-02T01:10:44Z</time>
      </trkpt>
      <trkpt lat="46.69165" lon="5.57842">
        <ele>313</ele>
        <time>2019-04-02T01:11:44Z</time>
      </trkpt>
      <trkpt lat="46.69147" lon="5.5782">
        <ele>313</ele>
        <time>2019-04-02T01:12:44Z</time>
      </trkpt>
      <trkpt lat="46.69131" lon="5.57802">
        <ele>313</ele>
        <time>2019-04-02T01:13:44Z</time>
      </trkpt>
      <trkpt lat="46.69111" lon="5.57783">
        <ele>312</ele>
        <time>2019-04-02T01:14:44Z</time>
      </trkpt>
      <trkpt lat="46.6909" lon="5.57764">
        <ele>312</ele>
        <time>2019-04-02T01:15:44Z</time>
      </trkpt>
      <trkpt lat="46.69074" lon="5.57752">
        <ele>312</ele>
        <time>2019-04-02T01:16:44Z</time>
      </trkpt>
      <trkpt lat="46.69064" lon="5.57745">
        <ele>312</ele>
        <time>2019-04-02T01:17:44Z</time>
      </trkpt>
      <trkpt lat="46.69053" lon="5.57739">
        <ele>312</ele>
        <time>2019-04-02T01:18:44Z</time>
      </trkpt>
      <trkpt lat="46.69039" lon="5.57734">
        <ele>312</ele>
        <time>2019-04-02T01:19:44Z</time>
      </trkpt>
      <trkpt lat="46.69024" lon="5.5773">
        <ele>311</ele>
        <time>2019-04-02T01:20:44Z</time>
      </trkpt>
      <trkpt lat="46.68991" lon="5.57723">
        <ele>310</ele>
        <time>2019-04-02T01:21:44Z</time>
      </trkpt>
      <trkpt lat="46.68975" lon="5.57716">
        <ele>310</ele>
        <time>2019-04-02T01:22:44Z</time>
      </trkpt>
      <trkpt lat="46.68918" lon="5.57648">
        <ele>309</ele>
        <time>2019-04-02T01:23:44Z</time>
      </trkpt>
      <trkpt lat="46.68887" lon="5.57611">
        <ele>308</ele>
        <time>2019-04-02T01:24:44Z</time>
      </trkpt>
      <trkpt lat="46.68871" lon="5.57589">
        <ele>307</ele>
        <time>2019-04-02T01:25:44Z</time>
      </trkpt>
      <trkpt lat="46.68854" lon="5.57563">
        <ele>305</ele>
        <time>2019-04-02T01:26:44Z</time>
      </trkpt>
      <trkpt lat="46.68841" lon="5.57535">
        <ele>303</ele>
        <time>2019-04-02T01:27:44Z</time>
      </trkpt>
      <trkpt lat="46.68833" lon="5.57514">
        <ele>302</ele>
        <time>2019-04-02T01:28:44Z</time>
      </trkpt>
      <trkpt lat="46.68828" lon="5.57487">
        <ele>302</ele>
        <time>2019-04-02T01:29:44Z</time>
      </trkpt>
      <trkpt lat="46.68821" lon="5.57462">
        <ele>301</ele>
        <time>2019-04-02T01:30:44Z</time>
      </trkpt>
      <trkpt lat="46.68814" lon="5.57448">
        <ele>300</ele>
        <time>2019-04-02T01:31:44Z</time>
      </trkpt>
      <trkpt lat="46.68801" lon="5.57432">
        <ele>299</ele>
        <time>2019-04-02T01:32:44Z</time>
      </trkpt>
      <trkpt lat="46.68786" lon="5.57417">
        <ele>297</ele>
        <time>2019-04-02T01:33:44Z</time>
      </trkpt>
      <trkpt lat="46.68762" lon="5.57397">
        <ele>295</ele>
        <time>2019-04-02T01:34:44Z</time>
      </trkpt>
      <trkpt lat="46.68745" lon="5.57388">
        <ele>293</ele>
        <time>2019-04-02T01:35:44Z</time>
      </trkpt>
      <trkpt lat="46.68712" lon="5.57333">
        <ele>292</ele>
        <time>2019-04-02T01:36:44Z</time>
      </trkpt>
      <trkpt lat="46.68695" lon="5.57307">
        <ele>289</ele>
        <time>2019-04-02T01:37:44Z</time>
      </trkpt>
      <trkpt lat="46.68668" lon="5.57287">
        <ele>286</ele>
        <time>2019-04-02T01:38:44Z</time>
      </trkpt>
      <trkpt lat="46.68639" lon="5.57269">
        <ele>283</ele>
        <time>2019-04-02T01:39:44Z</time>
      </trkpt>
      <trkpt lat="46.68605" lon="5.5725">
        <ele>278</ele>
        <time>2019-04-02T01:40:44Z</time>
      </trkpt>
      <trkpt lat="46.6858" lon="5.57236">
        <ele>275</ele>
        <time>2019-04-02T01:41:44Z</time>
      </trkpt>
      <trkpt lat="46.68575" lon="5.57235">
        <ele>275</ele>
        <time>2019-04-02T01:42:44Z</time>
      </trkpt>
      <trkpt lat="46.68563" lon="5.57229">
        <ele>274</ele>
        <time>2019-04-02T01:43:44Z</time>
      </trkpt>
      <trkpt lat="46.68547" lon="5.57214">
        <ele>274</ele>
        <time>2019-04-02T01:44:44Z</time>
      </trkpt>
      <trkpt lat="46.68533" lon="5.57189">
        <ele>273</ele>
        <time>2019-04-02T01:45:44Z</time>
      </trkpt>
      <trkpt lat="46.68518" lon="5.57153">
        <ele>271</ele>
        <time>2019-04-02T01:46:44Z</time>
      </trkpt>
      <trkpt lat="46.68509" lon="5.57123">
        <ele>271</ele>
        <time>2019-04-02T01:47:44Z</time>
      </trkpt>
      <trkpt lat="46.68498" lon="5.57096">
        <ele>270</ele>
        <time>2019-04-02T01:48:44Z</time>
      </trkpt>
      <trkpt lat="46.68489" lon="5.57073">
        <ele>271</ele>
        <time>2019-04-02T01:49:44Z</time>
      </trkpt>
      <trkpt lat="46.68469" lon="5.57007">
        <ele>271</ele>
        <time>2019-04-02T01:50:44Z</time>
      </trkpt>
      <trkpt lat="46.68459" lon="5.56974">
        <ele>272</ele>
        <time>2019-04-02T01:51:44Z</time>
      </trkpt>
      <trkpt lat="46.68443" lon="5.5693">
        <ele>273</ele>
        <time>2019-04-02T01:52:44Z</time>
      </trkpt>
      <trkpt lat="46.68438" lon="5.56916">
        <ele>274</ele>
        <time>2019-04-02T01:53:44Z</time>
      </trkpt>
      <trkpt lat="46.68424" lon="5.56888">
        <ele>275</ele>
        <time>2019-04-02T01:54:44Z</time>
      </trkpt>
      <trkpt lat="46.68416" lon="5.56872">
        <ele>276</ele>
        <time>2019-04-02T01:55:44Z</time>
      </trkpt>
      <trkpt lat="46.68426" lon="5.56861">
        <ele>275</ele>
        <time>2019-04-02T01:56:44Z</time>
      </trkpt>
      <trkpt lat="46.68431" lon="5.56844">
        <ele>275</ele>
        <time>2019-04-02T01:57:44Z</time>
      </trkpt>
      <trkpt lat="46.68432" lon="5.56837">
        <ele>275</ele>
        <time>2019-04-02T01:58:44Z</time>
      </trkpt>
      <trkpt lat="46.68397" lon="5.5677">
        <ele>276</ele>
        <time>2019-04-02T01:59:44Z</time>
      </trkpt>
      <trkpt lat="46.68396" lon="5.56768">
        <ele>276</ele>
        <time>2019-04-02T02:00:44Z</time>
      </trkpt>
      <trkpt lat="46.68379" lon="5.56728">
        <ele>276</ele>
        <time>2019-04-02T02:01:44Z</time>
      </trkpt>
    </trkseg>
  </trk>
</gpx>